<?xml version="1.0" encoding="UTF-8" standalone="no" ?>
<gpx xmlns="http://www.topografix.com/GPX/1/1" xmlns:xsi="http://www.w3.org/2001/XMLSchema-instance" xsi:schemaLocation="http://www.topografix.com/GPX/1/1 http://www.topografix.com/GPX/1/1/gpx.xsd" version="1.1" creator="VisuGPX - https://www.visugpx.com">
  <metadata>
    <name>Tour de France 2019</name>
    <desc><![CDATA[4272km en 2 mois en tandem avec notre petit chien dans le panier avant]]></desc>
  </metadata>
  <trk>
    <name><![CDATA[Tracé 20191101-084826]]></name>
    <trkseg>
      <trkpt lat="44.96497" lon="0.90248">
        <ele>189.051</ele>
        <time>2019-11-01T08:08:47Z</time>
      </trkpt>
      <trkpt lat="44.96617" lon="0.90191">
        <ele>186.433</ele>
        <time>2019-11-01T08:09:20Z</time>
      </trkpt>
      <trkpt lat="44.96734" lon="0.90153">
        <ele>183.924</ele>
        <time>2019-11-01T08:09:50Z</time>
      </trkpt>
      <trkpt lat="44.96905" lon="0.9009">
        <ele>178.033</ele>
        <time>2019-11-01T08:10:23Z</time>
      </trkpt>
      <trkpt lat="44.97008" lon="0.90085">
        <ele>183.951</ele>
        <time>2019-11-01T08:10:53Z</time>
      </trkpt>
      <trkpt lat="44.97096" lon="0.90062">
        <ele>185.047</ele>
        <time>2019-11-01T08:11:23Z</time>
      </trkpt>
      <trkpt lat="44.97162" lon="0.90031">
        <ele>187.939</ele>
        <time>2019-11-01T08:11:56Z</time>
      </trkpt>
      <trkpt lat="44.97228" lon="0.89985">
        <ele>194.12</ele>
        <time>2019-11-01T08:12:26Z</time>
      </trkpt>
      <trkpt lat="44.97252" lon="0.89883">
        <ele>198.336</ele>
        <time>2019-11-01T08:12:59Z</time>
      </trkpt>
      <trkpt lat="44.97304" lon="0.89815">
        <ele>202.844</ele>
        <time>2019-11-01T08:13:29Z</time>
      </trkpt>
      <trkpt lat="44.97261" lon="0.89737">
        <ele>204.573</ele>
        <time>2019-11-01T08:14:02Z</time>
      </trkpt>
      <trkpt lat="44.97197" lon="0.89704">
        <ele>208.236</ele>
        <time>2019-11-01T08:14:32Z</time>
      </trkpt>
      <trkpt lat="44.97157" lon="0.89605">
        <ele>217.407</ele>
        <time>2019-11-01T08:15:05Z</time>
      </trkpt>
      <trkpt lat="44.97178" lon="0.89421">
        <ele>205.33</ele>
        <time>2019-11-01T08:15:35Z</time>
      </trkpt>
      <trkpt lat="44.97282" lon="0.89311">
        <ele>198.435</ele>
        <time>2019-11-01T08:18:32Z</time>
      </trkpt>
      <trkpt lat="44.97227" lon="0.88969">
        <ele>163.434</ele>
        <time>2019-11-01T08:19:02Z</time>
      </trkpt>
      <trkpt lat="44.97305" lon="0.89002">
        <ele>148.561</ele>
        <time>2019-11-01T08:19:32Z</time>
      </trkpt>
      <trkpt lat="44.97397" lon="0.88997">
        <ele>151.183</ele>
        <time>2019-11-01T08:20:05Z</time>
      </trkpt>
      <trkpt lat="44.97467" lon="0.8896">
        <ele>162.071</ele>
        <time>2019-11-01T08:20:35Z</time>
      </trkpt>
      <trkpt lat="44.97542" lon="0.88909">
        <ele>174.459</ele>
        <time>2019-11-01T08:21:08Z</time>
      </trkpt>
      <trkpt lat="44.97614" lon="0.88881">
        <ele>175.329</ele>
        <time>2019-11-01T08:21:38Z</time>
      </trkpt>
      <trkpt lat="44.97693" lon="0.88874">
        <ele>180.113</ele>
        <time>2019-11-01T08:22:11.001Z</time>
      </trkpt>
      <trkpt lat="44.97762" lon="0.88854">
        <ele>181.467</ele>
        <time>2019-11-01T08:22:41.001Z</time>
      </trkpt>
      <trkpt lat="44.9784" lon="0.88828">
        <ele>185.392</ele>
        <time>2019-11-01T08:23:14.001Z</time>
      </trkpt>
      <trkpt lat="44.97908" lon="0.88802">
        <ele>191.653</ele>
        <time>2019-11-01T08:23:44.001Z</time>
      </trkpt>
      <trkpt lat="44.97989" lon="0.88765">
        <ele>190.339</ele>
        <time>2019-11-01T08:24:17.001Z</time>
      </trkpt>
      <trkpt lat="44.9806" lon="0.88732">
        <ele>193.291</ele>
        <time>2019-11-01T08:24:47.001Z</time>
      </trkpt>
      <trkpt lat="44.98131" lon="0.88703">
        <ele>197.456</ele>
        <time>2019-11-01T08:25:17.001Z</time>
      </trkpt>
      <trkpt lat="44.98215" lon="0.88696">
        <ele>198.857</ele>
        <time>2019-11-01T08:25:50.001Z</time>
      </trkpt>
      <trkpt lat="44.98281" lon="0.88709">
        <ele>205.181</ele>
        <time>2019-11-01T08:26:20.001Z</time>
      </trkpt>
      <trkpt lat="44.98353" lon="0.88741">
        <ele>212.798</ele>
        <time>2019-11-01T08:26:53.001Z</time>
      </trkpt>
      <trkpt lat="44.98417" lon="0.88779">
        <ele>215.596</ele>
        <time>2019-11-01T08:27:23.001Z</time>
      </trkpt>
      <trkpt lat="44.98489" lon="0.88823">
        <ele>214.823</ele>
        <time>2019-11-01T08:27:56.001Z</time>
      </trkpt>
      <trkpt lat="44.98552" lon="0.88859">
        <ele>220.86</ele>
        <time>2019-11-01T08:28:26.001Z</time>
      </trkpt>
      <trkpt lat="44.98619" lon="0.88907">
        <ele>232.997</ele>
        <time>2019-11-01T08:28:59.001Z</time>
      </trkpt>
      <trkpt lat="44.98683" lon="0.8894">
        <ele>228.898</ele>
        <time>2019-11-01T08:29:29.001Z</time>
      </trkpt>
      <trkpt lat="44.98759" lon="0.88974">
        <ele>229.066</ele>
        <time>2019-11-01T08:30:02Z</time>
      </trkpt>
      <trkpt lat="44.98859" lon="0.88996">
        <ele>236.759</ele>
        <time>2019-11-01T08:30:32.001Z</time>
      </trkpt>
      <trkpt lat="44.99084" lon="0.8889">
        <ele>225.108</ele>
        <time>2019-11-01T08:31:02Z</time>
      </trkpt>
      <trkpt lat="44.9931" lon="0.88772">
        <ele>214.56</ele>
        <time>2019-11-01T08:31:35.001Z</time>
      </trkpt>
      <trkpt lat="44.99505" lon="0.88805">
        <ele>214.293</ele>
        <time>2019-11-01T08:32:05.001Z</time>
      </trkpt>
      <trkpt lat="44.99713" lon="0.88764">
        <ele>214.873</ele>
        <time>2019-11-01T08:32:38.001Z</time>
      </trkpt>
      <trkpt lat="44.99873" lon="0.88561">
        <ele>208.846</ele>
        <time>2019-11-01T08:33:08.001Z</time>
      </trkpt>
      <trkpt lat="44.9997" lon="0.88221">
        <ele>201.471</ele>
        <time>2019-11-01T08:33:41.001Z</time>
      </trkpt>
      <trkpt lat="45.00141" lon="0.88009">
        <ele>201.551</ele>
        <time>2019-11-01T08:34:11.001Z</time>
      </trkpt>
      <trkpt lat="45.00379" lon="0.88143">
        <ele>193.352</ele>
        <time>2019-11-01T08:34:44.001Z</time>
      </trkpt>
      <trkpt lat="45.00615" lon="0.88167">
        <ele>186.47</ele>
        <time>2019-11-01T08:35:14.001Z</time>
      </trkpt>
      <trkpt lat="45.0079" lon="0.88303">
        <ele>191.51</ele>
        <time>2019-11-01T08:35:47.001Z</time>
      </trkpt>
      <trkpt lat="45.00857" lon="0.88388">
        <ele>199.363</ele>
        <time>2019-11-01T08:36:17.001Z</time>
      </trkpt>
      <trkpt lat="45.00923" lon="0.88444">
        <ele>199.249</ele>
        <time>2019-11-01T08:36:47.001Z</time>
      </trkpt>
      <trkpt lat="45.01005" lon="0.88456">
        <ele>202.112</ele>
        <time>2019-11-01T08:37:20.001Z</time>
      </trkpt>
      <trkpt lat="45.01074" lon="0.88411">
        <ele>207.126</ele>
        <time>2019-11-01T08:37:50.001Z</time>
      </trkpt>
      <trkpt lat="45.01136" lon="0.88335">
        <ele>212.88</ele>
        <time>2019-11-01T08:38:23.001Z</time>
      </trkpt>
      <trkpt lat="45.0119" lon="0.88268">
        <ele>218.316</ele>
        <time>2019-11-01T08:38:53.001Z</time>
      </trkpt>
      <trkpt lat="45.01252" lon="0.88183">
        <ele>229.346</ele>
        <time>2019-11-01T08:39:26.001Z</time>
      </trkpt>
      <trkpt lat="45.01308" lon="0.88101">
        <ele>231.098</ele>
        <time>2019-11-01T08:39:56.001Z</time>
      </trkpt>
      <trkpt lat="45.01376" lon="0.88007">
        <ele>229.42</ele>
        <time>2019-11-01T08:40:29.001Z</time>
      </trkpt>
      <trkpt lat="45.01458" lon="0.87933">
        <ele>229.201</ele>
        <time>2019-11-01T08:40:59.001Z</time>
      </trkpt>
      <trkpt lat="45.01576" lon="0.87917">
        <ele>224.062</ele>
        <time>2019-11-01T08:41:32.001Z</time>
      </trkpt>
      <trkpt lat="45.01683" lon="0.87964">
        <ele>222.719</ele>
        <time>2019-11-01T08:42:02Z</time>
      </trkpt>
      <trkpt lat="45.01813" lon="0.88013">
        <ele>222.938</ele>
        <time>2019-11-01T08:42:32.001Z</time>
      </trkpt>
      <trkpt lat="45.01949" lon="0.87933">
        <ele>224.946</ele>
        <time>2019-11-01T08:43:05.001Z</time>
      </trkpt>
      <trkpt lat="45.02066" lon="0.87894">
        <ele>224.81</ele>
        <time>2019-11-01T08:43:35.001Z</time>
      </trkpt>
      <trkpt lat="45.02197" lon="0.87892">
        <ele>227.592</ele>
        <time>2019-11-01T08:44:08.001Z</time>
      </trkpt>
      <trkpt lat="45.02315" lon="0.87926">
        <ele>229.701</ele>
        <time>2019-11-01T08:44:38.001Z</time>
      </trkpt>
      <trkpt lat="45.02423" lon="0.87984">
        <ele>235.314</ele>
        <time>2019-11-01T08:45:11.001Z</time>
      </trkpt>
      <trkpt lat="45.02511" lon="0.8804">
        <ele>238.91</ele>
        <time>2019-11-01T08:45:41.001Z</time>
      </trkpt>
      <trkpt lat="45.02615" lon="0.88081">
        <ele>240.902</ele>
        <time>2019-11-01T08:46:14.001Z</time>
      </trkpt>
      <trkpt lat="45.02728" lon="0.8808">
        <ele>238.28</ele>
        <time>2019-11-01T08:46:44.001Z</time>
      </trkpt>
      <trkpt lat="45.02839" lon="0.87968">
        <ele>239.606</ele>
        <time>2019-11-01T08:47:17.001Z</time>
      </trkpt>
      <trkpt lat="45.02901" lon="0.87781">
        <ele>239.416</ele>
        <time>2019-11-01T08:47:47.001Z</time>
      </trkpt>
      <trkpt lat="45.03073" lon="0.87548">
        <ele>234.378</ele>
        <time>2019-11-01T08:48:17.001Z</time>
      </trkpt>
      <trkpt lat="45.03303" lon="0.87337">
        <ele>228.196</ele>
        <time>2019-11-01T08:48:50.001Z</time>
      </trkpt>
      <trkpt lat="45.03446" lon="0.87137">
        <ele>225.032</ele>
        <time>2019-11-01T08:49:20.001Z</time>
      </trkpt>
      <trkpt lat="45.03669" lon="0.87122">
        <ele>222.346</ele>
        <time>2019-11-01T08:49:53.001Z</time>
      </trkpt>
      <trkpt lat="45.03885" lon="0.87013">
        <ele>217.441</ele>
        <time>2019-11-01T08:50:23.001Z</time>
      </trkpt>
      <trkpt lat="45.04049" lon="0.8663">
        <ele>203.714</ele>
        <time>2019-11-01T08:50:56.001Z</time>
      </trkpt>
      <trkpt lat="45.04077" lon="0.86295">
        <ele>203.639</ele>
        <time>2019-11-01T08:51:26.001Z</time>
      </trkpt>
      <trkpt lat="45.04046" lon="0.86112">
        <ele>204.4</ele>
        <time>2019-11-01T08:51:59.001Z</time>
      </trkpt>
      <trkpt lat="45.04016" lon="0.86015">
        <ele>207.076</ele>
        <time>2019-11-01T08:52:29.001Z</time>
      </trkpt>
      <trkpt lat="45.0401" lon="0.85904">
        <ele>214.036</ele>
        <time>2019-11-01T08:53:02Z</time>
      </trkpt>
      <trkpt lat="45.04028" lon="0.8582">
        <ele>218.399</ele>
        <time>2019-11-01T08:53:32.001Z</time>
      </trkpt>
      <trkpt lat="45.04057" lon="0.85757">
        <ele>225.603</ele>
        <time>2019-11-01T08:54:05.001Z</time>
      </trkpt>
      <trkpt lat="45.04102" lon="0.85698">
        <ele>225.948</ele>
        <time>2019-11-01T08:54:38.001Z</time>
      </trkpt>
      <trkpt lat="45.04158" lon="0.85669">
        <ele>229.491</ele>
        <time>2019-11-01T08:55:11.001Z</time>
      </trkpt>
      <trkpt lat="45.04222" lon="0.85659">
        <ele>234.472</ele>
        <time>2019-11-01T08:55:44.001Z</time>
      </trkpt>
      <trkpt lat="45.04281" lon="0.85678">
        <ele>237.674</ele>
        <time>2019-11-01T08:56:14.001Z</time>
      </trkpt>
      <trkpt lat="45.04337" lon="0.85718">
        <ele>237.218</ele>
        <time>2019-11-01T08:56:47.001Z</time>
      </trkpt>
      <trkpt lat="45.04389" lon="0.8576">
        <ele>241.518</ele>
        <time>2019-11-01T08:57:17.001Z</time>
      </trkpt>
      <trkpt lat="45.04455" lon="0.85779">
        <ele>242.624</ele>
        <time>2019-11-01T08:57:50.001Z</time>
      </trkpt>
      <trkpt lat="45.04514" lon="0.85766">
        <ele>247.815</ele>
        <time>2019-11-01T08:58:20.001Z</time>
      </trkpt>
      <trkpt lat="45.0458" lon="0.85739">
        <ele>250.367</ele>
        <time>2019-11-01T08:58:53.001Z</time>
      </trkpt>
      <trkpt lat="45.04649" lon="0.85734">
        <ele>252.059</ele>
        <time>2019-11-01T08:59:23.001Z</time>
      </trkpt>
      <trkpt lat="45.0473" lon="0.85744">
        <ele>253.216</ele>
        <time>2019-11-01T08:59:53.001Z</time>
      </trkpt>
      <trkpt lat="45.04854" lon="0.85777">
        <ele>253.103</ele>
        <time>2019-11-01T09:00:26.001Z</time>
      </trkpt>
      <trkpt lat="45.04983" lon="0.85912">
        <ele>253.827</ele>
        <time>2019-11-01T09:00:56.001Z</time>
      </trkpt>
      <trkpt lat="45.05221" lon="0.8599">
        <ele>245.734</ele>
        <time>2019-11-01T09:01:29.001Z</time>
      </trkpt>
      <trkpt lat="45.05435" lon="0.85876">
        <ele>243.521</ele>
        <time>2019-11-01T09:01:59.001Z</time>
      </trkpt>
      <trkpt lat="45.05738" lon="0.85878">
        <ele>230.47</ele>
        <time>2019-11-01T09:02:32.001Z</time>
      </trkpt>
      <trkpt lat="45.06053" lon="0.86172">
        <ele>208.615</ele>
        <time>2019-11-01T09:03:02Z</time>
      </trkpt>
      <trkpt lat="45.06118" lon="0.8633">
        <ele>195.718</ele>
        <time>2019-11-01T09:04:14.001Z</time>
      </trkpt>
      <trkpt lat="45.06118" lon="0.86333">
        <ele>199.229</ele>
        <time>2019-11-01T09:15:02Z</time>
      </trkpt>
      <trkpt lat="45.06117" lon="0.86331">
        <ele>199.206</ele>
        <time>2019-11-01T09:21:47.001Z</time>
      </trkpt>
      <trkpt lat="45.06158" lon="0.86434">
        <ele>201.09</ele>
        <time>2019-11-01T09:22:20.001Z</time>
      </trkpt>
      <trkpt lat="45.06264" lon="0.86707">
        <ele>189.433</ele>
        <time>2019-11-01T09:22:50.001Z</time>
      </trkpt>
      <trkpt lat="45.06462" lon="0.86874">
        <ele>188.163</ele>
        <time>2019-11-01T09:23:23.001Z</time>
      </trkpt>
      <trkpt lat="45.06523" lon="0.86947">
        <ele>187.891</ele>
        <time>2019-11-01T09:24:50.001Z</time>
      </trkpt>
      <trkpt lat="45.06678" lon="0.87048">
        <ele>188.136</ele>
        <time>2019-11-01T09:25:23.001Z</time>
      </trkpt>
      <trkpt lat="45.06832" lon="0.86994">
        <ele>190.43</ele>
        <time>2019-11-01T09:25:53.001Z</time>
      </trkpt>
      <trkpt lat="45.07012" lon="0.86902">
        <ele>190.441</ele>
        <time>2019-11-01T09:26:26.001Z</time>
      </trkpt>
      <trkpt lat="45.07287" lon="0.86855">
        <ele>181.598</ele>
        <time>2019-11-01T09:26:56.001Z</time>
      </trkpt>
      <trkpt lat="45.07621" lon="0.86744">
        <ele>168.906</ele>
        <time>2019-11-01T09:27:29.001Z</time>
      </trkpt>
      <trkpt lat="45.07868" lon="0.86685">
        <ele>168.296</ele>
        <time>2019-11-01T09:27:59.001Z</time>
      </trkpt>
      <trkpt lat="45.08083" lon="0.86395">
        <ele>163.939</ele>
        <time>2019-11-01T09:28:32.001Z</time>
      </trkpt>
      <trkpt lat="45.08289" lon="0.86193">
        <ele>153.44</ele>
        <time>2019-11-01T09:29:02Z</time>
      </trkpt>
      <trkpt lat="45.08447" lon="0.86097">
        <ele>152.889</ele>
        <time>2019-11-01T09:29:32.001Z</time>
      </trkpt>
      <trkpt lat="45.08675" lon="0.86013">
        <ele>152.836</ele>
        <time>2019-11-01T09:30:05.001Z</time>
      </trkpt>
      <trkpt lat="45.08846" lon="0.8593">
        <ele>151.897</ele>
        <time>2019-11-01T09:30:35.001Z</time>
      </trkpt>
      <trkpt lat="45.0895" lon="0.85674">
        <ele>151.268</ele>
        <time>2019-11-01T09:31:08.001Z</time>
      </trkpt>
      <trkpt lat="45.09116" lon="0.85582">
        <ele>144.631</ele>
        <time>2019-11-01T09:31:38.001Z</time>
      </trkpt>
      <trkpt lat="45.09269" lon="0.85612">
        <ele>147.347</ele>
        <time>2019-11-01T09:32:11.001Z</time>
      </trkpt>
      <trkpt lat="45.0932" lon="0.85666">
        <ele>155.109</ele>
        <time>2019-11-01T09:32:41.001Z</time>
      </trkpt>
      <trkpt lat="45.09389" lon="0.85692">
        <ele>158.62</ele>
        <time>2019-11-01T09:33:14.001Z</time>
      </trkpt>
      <trkpt lat="45.0945" lon="0.85676">
        <ele>162.235</ele>
        <time>2019-11-01T09:33:44.001Z</time>
      </trkpt>
      <trkpt lat="45.09522" lon="0.85656">
        <ele>166.941</ele>
        <time>2019-11-01T09:34:17.001Z</time>
      </trkpt>
      <trkpt lat="45.09585" lon="0.85648">
        <ele>168.772</ele>
        <time>2019-11-01T09:34:47.001Z</time>
      </trkpt>
      <trkpt lat="45.09647" lon="0.85634">
        <ele>171.419</ele>
        <time>2019-11-01T09:35:17.001Z</time>
      </trkpt>
      <trkpt lat="45.09705" lon="0.85587">
        <ele>173.962</ele>
        <time>2019-11-01T09:35:50.001Z</time>
      </trkpt>
      <trkpt lat="45.09764" lon="0.85579">
        <ele>178.684</ele>
        <time>2019-11-01T09:36:20.001Z</time>
      </trkpt>
      <trkpt lat="45.0983" lon="0.85591">
        <ele>187.994</ele>
        <time>2019-11-01T09:36:53.001Z</time>
      </trkpt>
      <trkpt lat="45.09887" lon="0.85551">
        <ele>188.068</ele>
        <time>2019-11-01T09:37:23.001Z</time>
      </trkpt>
      <trkpt lat="45.09947" lon="0.85529">
        <ele>193.896</ele>
        <time>2019-11-01T09:37:56.001Z</time>
      </trkpt>
      <trkpt lat="45.09983" lon="0.85586">
        <ele>200.684</ele>
        <time>2019-11-01T09:38:26.001Z</time>
      </trkpt>
      <trkpt lat="45.10064" lon="0.85726">
        <ele>209.899</ele>
        <time>2019-11-01T09:38:59.001Z</time>
      </trkpt>
      <trkpt lat="45.10341" lon="0.85695">
        <ele>208.83</ele>
        <time>2019-11-01T09:39:29.001Z</time>
      </trkpt>
      <trkpt lat="45.10503" lon="0.85763">
        <ele>182.171</ele>
        <time>2019-11-01T09:40:02Z</time>
      </trkpt>
      <trkpt lat="45.1056" lon="0.85777">
        <ele>191.811</ele>
        <time>2019-11-01T09:40:38.001Z</time>
      </trkpt>
      <trkpt lat="45.10614" lon="0.85816">
        <ele>204.017</ele>
        <time>2019-11-01T09:41:11.001Z</time>
      </trkpt>
      <trkpt lat="45.1068" lon="0.85818">
        <ele>200.022</ele>
        <time>2019-11-01T09:41:50.001Z</time>
      </trkpt>
      <trkpt lat="45.10743" lon="0.85829">
        <ele>196.16</ele>
        <time>2019-11-01T09:42:23.001Z</time>
      </trkpt>
      <trkpt lat="45.10803" lon="0.8584">
        <ele>199</ele>
        <time>2019-11-01T09:43:02Z</time>
      </trkpt>
      <trkpt lat="45.10858" lon="0.85858">
        <ele>206.209</ele>
        <time>2019-11-01T09:43:35.001Z</time>
      </trkpt>
      <trkpt lat="45.10922" lon="0.8587">
        <ele>218.408</ele>
        <time>2019-11-01T09:44:11.001Z</time>
      </trkpt>
      <trkpt lat="45.10981" lon="0.85879">
        <ele>223.74</ele>
        <time>2019-11-01T09:44:47.001Z</time>
      </trkpt>
      <trkpt lat="45.11042" lon="0.85876">
        <ele>223.067</ele>
        <time>2019-11-01T09:45:20.001Z</time>
      </trkpt>
      <trkpt lat="45.11157" lon="0.85776">
        <ele>223.523</ele>
        <time>2019-11-01T09:45:56.001Z</time>
      </trkpt>
      <trkpt lat="45.11425" lon="0.85977">
        <ele>211.135</ele>
        <time>2019-11-01T09:46:29.001Z</time>
      </trkpt>
      <trkpt lat="45.11739" lon="0.85915">
        <ele>182</ele>
        <time>2019-11-01T09:46:59.001Z</time>
      </trkpt>
      <trkpt lat="45.12" lon="0.86049">
        <ele>150.183</ele>
        <time>2019-11-01T09:47:29.001Z</time>
      </trkpt>
      <trkpt lat="45.1226" lon="0.86067">
        <ele>138.735</ele>
        <time>2019-11-01T09:48:02Z</time>
      </trkpt>
      <trkpt lat="45.12298" lon="0.85987">
        <ele>136.254</ele>
        <time>2019-11-01T09:48:38.001Z</time>
      </trkpt>
      <trkpt lat="45.12269" lon="0.85719">
        <ele>137.194</ele>
        <time>2019-11-01T09:49:11.001Z</time>
      </trkpt>
      <trkpt lat="45.12399" lon="0.85669">
        <ele>139.922</ele>
        <time>2019-11-01T09:49:41.001Z</time>
      </trkpt>
      <trkpt lat="45.12443" lon="0.85617">
        <ele>145.491</ele>
        <time>2019-11-01T09:56:08.001Z</time>
      </trkpt>
      <trkpt lat="45.12468" lon="0.85653">
        <ele>144.33</ele>
        <time>2019-11-01T09:56:41.001Z</time>
      </trkpt>
      <trkpt lat="45.12485" lon="0.8569">
        <ele>146.124</ele>
        <time>2019-11-01T09:57:50.001Z</time>
      </trkpt>
      <trkpt lat="45.12501" lon="0.85646">
        <ele>146.37</ele>
        <time>2019-11-01T09:58:26.001Z</time>
      </trkpt>
      <trkpt lat="45.12551" lon="0.8564">
        <ele>146.16</ele>
        <time>2019-11-01T09:59:20.001Z</time>
      </trkpt>
      <trkpt lat="45.12589" lon="0.85615">
        <ele>150.599</ele>
        <time>2019-11-01T10:00:08.001Z</time>
      </trkpt>
      <trkpt lat="45.12632" lon="0.85632">
        <ele>154.308</ele>
        <time>2019-11-01T10:00:53.001Z</time>
      </trkpt>
      <trkpt lat="45.1269" lon="0.85646">
        <ele>156.259</ele>
        <time>2019-11-01T10:01:26.001Z</time>
      </trkpt>
      <trkpt lat="45.12746" lon="0.85682">
        <ele>159.424</ele>
        <time>2019-11-01T10:02:02Z</time>
      </trkpt>
      <trkpt lat="45.12799" lon="0.85676">
        <ele>165.618</ele>
        <time>2019-11-01T10:02:35.001Z</time>
      </trkpt>
      <trkpt lat="45.12851" lon="0.85689">
        <ele>170.777</ele>
        <time>2019-11-01T10:03:08.001Z</time>
      </trkpt>
      <trkpt lat="45.12906" lon="0.85734">
        <ele>176.754</ele>
        <time>2019-11-01T10:03:50.001Z</time>
      </trkpt>
      <trkpt lat="45.12961" lon="0.85777">
        <ele>180.121</ele>
        <time>2019-11-01T10:04:32.001Z</time>
      </trkpt>
      <trkpt lat="45.1303" lon="0.85814">
        <ele>191.943</ele>
        <time>2019-11-01T10:05:20.001Z</time>
      </trkpt>
      <trkpt lat="45.13088" lon="0.8586">
        <ele>196.078</ele>
        <time>2019-11-01T10:06:05.001Z</time>
      </trkpt>
      <trkpt lat="45.1314" lon="0.85913">
        <ele>198.071</ele>
        <time>2019-11-01T10:06:47.001Z</time>
      </trkpt>
      <trkpt lat="45.13191" lon="0.85947">
        <ele>203.892</ele>
        <time>2019-11-01T10:07:23.001Z</time>
      </trkpt>
      <trkpt lat="45.13246" lon="0.85963">
        <ele>213.493</ele>
        <time>2019-11-01T10:07:59.001Z</time>
      </trkpt>
      <trkpt lat="45.13304" lon="0.8601">
        <ele>222.813</ele>
        <time>2019-11-01T10:08:41.001Z</time>
      </trkpt>
      <trkpt lat="45.13344" lon="0.86059">
        <ele>234.192</ele>
        <time>2019-11-01T10:09:17.001Z</time>
      </trkpt>
      <trkpt lat="45.13384" lon="0.86133">
        <ele>229.189</ele>
        <time>2019-11-01T10:09:56.001Z</time>
      </trkpt>
      <trkpt lat="45.13422" lon="0.86213">
        <ele>232.46</ele>
        <time>2019-11-01T10:10:41.001Z</time>
      </trkpt>
      <trkpt lat="45.13447" lon="0.86311">
        <ele>240.645</ele>
        <time>2019-11-01T10:11:29.001Z</time>
      </trkpt>
      <trkpt lat="45.13448" lon="0.86395">
        <ele>239.843</ele>
        <time>2019-11-01T10:12:05.001Z</time>
      </trkpt>
      <trkpt lat="45.13452" lon="0.86485">
        <ele>242.576</ele>
        <time>2019-11-01T10:12:47.001Z</time>
      </trkpt>
      <trkpt lat="45.13469" lon="0.86555">
        <ele>247.581</ele>
        <time>2019-11-01T10:13:20.001Z</time>
      </trkpt>
      <trkpt lat="45.13516" lon="0.86628">
        <ele>252.952</ele>
        <time>2019-11-01T10:13:53.001Z</time>
      </trkpt>
      <trkpt lat="45.13638" lon="0.86709">
        <ele>252.947</ele>
        <time>2019-11-01T10:14:23.001Z</time>
      </trkpt>
      <trkpt lat="45.1388" lon="0.86869">
        <ele>238.751</ele>
        <time>2019-11-01T10:14:53.001Z</time>
      </trkpt>
      <trkpt lat="45.14047" lon="0.87065">
        <ele>231.655</ele>
        <time>2019-11-01T10:15:26.001Z</time>
      </trkpt>
      <trkpt lat="45.14144" lon="0.87203">
        <ele>234.895</ele>
        <time>2019-11-01T10:15:56.001Z</time>
      </trkpt>
      <trkpt lat="45.14213" lon="0.87398">
        <ele>236.486</ele>
        <time>2019-11-01T10:16:29.001Z</time>
      </trkpt>
      <trkpt lat="45.14267" lon="0.87505">
        <ele>235.596</ele>
        <time>2019-11-01T10:16:59.001Z</time>
      </trkpt>
      <trkpt lat="45.1435" lon="0.87587">
        <ele>237.892</ele>
        <time>2019-11-01T10:17:32.001Z</time>
      </trkpt>
      <trkpt lat="45.14423" lon="0.87675">
        <ele>243.736</ele>
        <time>2019-11-01T10:18:02Z</time>
      </trkpt>
      <trkpt lat="45.1446" lon="0.87854">
        <ele>243.836</ele>
        <time>2019-11-01T10:18:35.001Z</time>
      </trkpt>
      <trkpt lat="45.14446" lon="0.87968">
        <ele>248.538</ele>
        <time>2019-11-01T10:20:56.001Z</time>
      </trkpt>
      <trkpt lat="45.14416" lon="0.88125">
        <ele>240.747</ele>
        <time>2019-11-01T10:21:29.001Z</time>
      </trkpt>
      <trkpt lat="45.14399" lon="0.8823">
        <ele>238.477</ele>
        <time>2019-11-01T10:21:59.001Z</time>
      </trkpt>
      <trkpt lat="45.1441" lon="0.88311">
        <ele>243.99</ele>
        <time>2019-11-01T10:22:29.001Z</time>
      </trkpt>
      <trkpt lat="45.14473" lon="0.88364">
        <ele>250.197</ele>
        <time>2019-11-01T10:23:02Z</time>
      </trkpt>
      <trkpt lat="45.14526" lon="0.88426">
        <ele>251.402</ele>
        <time>2019-11-01T10:23:32.001Z</time>
      </trkpt>
      <trkpt lat="45.14587" lon="0.88587">
        <ele>248.791</ele>
        <time>2019-11-01T10:24:05.001Z</time>
      </trkpt>
      <trkpt lat="45.14541" lon="0.88782">
        <ele>253.641</ele>
        <time>2019-11-01T10:24:35.001Z</time>
      </trkpt>
      <trkpt lat="45.14538" lon="0.89078">
        <ele>248.275</ele>
        <time>2019-11-01T10:25:08.001Z</time>
      </trkpt>
      <trkpt lat="45.1471" lon="0.89436">
        <ele>233.419</ele>
        <time>2019-11-01T10:25:38.001Z</time>
      </trkpt>
      <trkpt lat="45.1489" lon="0.89594">
        <ele>232.84</ele>
        <time>2019-11-01T10:26:11.001Z</time>
      </trkpt>
      <trkpt lat="45.14989" lon="0.8974">
        <ele>227.544</ele>
        <time>2019-11-01T10:26:41.001Z</time>
      </trkpt>
      <trkpt lat="45.1518" lon="0.8989">
        <ele>225.497</ele>
        <time>2019-11-01T10:27:14.001Z</time>
      </trkpt>
      <trkpt lat="45.15343" lon="0.90135">
        <ele>214.463</ele>
        <time>2019-11-01T10:27:44.001Z</time>
      </trkpt>
      <trkpt lat="45.15471" lon="0.90315">
        <ele>211.882</ele>
        <time>2019-11-01T10:28:14.001Z</time>
      </trkpt>
      <trkpt lat="45.15568" lon="0.90481">
        <ele>212.094</ele>
        <time>2019-11-01T10:28:47.001Z</time>
      </trkpt>
      <trkpt lat="45.15622" lon="0.90608">
        <ele>215.333</ele>
        <time>2019-11-01T10:29:17.001Z</time>
      </trkpt>
      <trkpt lat="45.15652" lon="0.9085">
        <ele>213.454</ele>
        <time>2019-11-01T10:29:50.001Z</time>
      </trkpt>
      <trkpt lat="45.15722" lon="0.91059">
        <ele>211.379</ele>
        <time>2019-11-01T10:30:20.001Z</time>
      </trkpt>
      <trkpt lat="45.15804" lon="0.91237">
        <ele>210.174</ele>
        <time>2019-11-01T10:30:53.001Z</time>
      </trkpt>
      <trkpt lat="45.15877" lon="0.9121">
        <ele>210.819</ele>
        <time>2019-11-01T10:31:23.001Z</time>
      </trkpt>
      <trkpt lat="45.15956" lon="0.91189">
        <ele>214.057</ele>
        <time>2019-11-01T10:31:56.001Z</time>
      </trkpt>
      <trkpt lat="45.16022" lon="0.91191">
        <ele>219.141</ele>
        <time>2019-11-01T10:32:26.001Z</time>
      </trkpt>
      <trkpt lat="45.16085" lon="0.91221">
        <ele>220.435</ele>
        <time>2019-11-01T10:32:59.001Z</time>
      </trkpt>
      <trkpt lat="45.16169" lon="0.91297">
        <ele>221.555</ele>
        <time>2019-11-01T10:33:29.001Z</time>
      </trkpt>
      <trkpt lat="45.16366" lon="0.91075">
        <ele>217.929</ele>
        <time>2019-11-01T10:33:59.001Z</time>
      </trkpt>
      <trkpt lat="45.16675" lon="0.9084">
        <ele>201.562</ele>
        <time>2019-11-01T10:34:32.001Z</time>
      </trkpt>
      <trkpt lat="45.17017" lon="0.90773">
        <ele>183.641</ele>
        <time>2019-11-01T10:35:02Z</time>
      </trkpt>
      <trkpt lat="45.17338" lon="0.90723">
        <ele>157.874</ele>
        <time>2019-11-01T10:35:35.001Z</time>
      </trkpt>
      <trkpt lat="45.17575" lon="0.90862">
        <ele>141.825</ele>
        <time>2019-11-01T10:36:05.001Z</time>
      </trkpt>
      <trkpt lat="45.17655" lon="0.90941">
        <ele>145.565</ele>
        <time>2019-11-01T10:36:38.001Z</time>
      </trkpt>
      <trkpt lat="45.17709" lon="0.91">
        <ele>156.597</ele>
        <time>2019-11-01T10:37:08.001Z</time>
      </trkpt>
      <trkpt lat="45.1776" lon="0.91027">
        <ele>152.432</ele>
        <time>2019-11-01T10:38:02Z</time>
      </trkpt>
      <trkpt lat="45.17814" lon="0.91025">
        <ele>164.511</ele>
        <time>2019-11-01T10:39:02Z</time>
      </trkpt>
      <trkpt lat="45.17873" lon="0.91024">
        <ele>169.286</ele>
        <time>2019-11-01T10:40:08.001Z</time>
      </trkpt>
      <trkpt lat="45.17907" lon="0.91039">
        <ele>174.227</ele>
        <time>2019-11-01T10:40:53.001Z</time>
      </trkpt>
      <trkpt lat="45.17925" lon="0.91055">
        <ele>175.194</ele>
        <time>2019-11-01T10:41:26.001Z</time>
      </trkpt>
      <trkpt lat="45.1795" lon="0.9108">
        <ele>176.634</ele>
        <time>2019-11-01T10:42:05.001Z</time>
      </trkpt>
      <trkpt lat="45.17995" lon="0.91071">
        <ele>192.553</ele>
        <time>2019-11-01T10:43:05.001Z</time>
      </trkpt>
      <trkpt lat="45.18038" lon="0.91032">
        <ele>196.676</ele>
        <time>2019-11-01T10:44:02Z</time>
      </trkpt>
      <trkpt lat="45.18071" lon="0.90968">
        <ele>204.035</ele>
        <time>2019-11-01T10:45:05.001Z</time>
      </trkpt>
      <trkpt lat="45.18072" lon="0.90919">
        <ele>204.036</ele>
        <time>2019-11-01T10:46:08.001Z</time>
      </trkpt>
      <trkpt lat="45.1807" lon="0.9084">
        <ele>209.261</ele>
        <time>2019-11-01T10:46:38.001Z</time>
      </trkpt>
      <trkpt lat="45.18104" lon="0.90761">
        <ele>215.622</ele>
        <time>2019-11-01T10:47:14.001Z</time>
      </trkpt>
      <trkpt lat="45.18211" lon="0.90771">
        <ele>211.911</ele>
        <time>2019-11-01T10:47:44.001Z</time>
      </trkpt>
      <trkpt lat="45.18329" lon="0.90807">
        <ele>209.641</ele>
        <time>2019-11-01T10:48:17.001Z</time>
      </trkpt>
      <trkpt lat="45.18405" lon="0.90822">
        <ele>215.488</ele>
        <time>2019-11-01T10:48:47.001Z</time>
      </trkpt>
      <trkpt lat="45.18474" lon="0.90835">
        <ele>220.677</ele>
        <time>2019-11-01T10:49:17.001Z</time>
      </trkpt>
      <trkpt lat="45.18535" lon="0.9089">
        <ele>220.804</ele>
        <time>2019-11-01T10:49:50.001Z</time>
      </trkpt>
      <trkpt lat="45.18595" lon="0.90951">
        <ele>224.658</ele>
        <time>2019-11-01T10:50:20.001Z</time>
      </trkpt>
      <trkpt lat="45.1867" lon="0.91022">
        <ele>234.197</ele>
        <time>2019-11-01T10:50:53.001Z</time>
      </trkpt>
      <trkpt lat="45.18766" lon="0.91169">
        <ele>237.513</ele>
        <time>2019-11-01T10:51:23.001Z</time>
      </trkpt>
      <trkpt lat="45.18937" lon="0.91052">
        <ele>232.213</ele>
        <time>2019-11-01T10:51:56.001Z</time>
      </trkpt>
      <trkpt lat="45.19209" lon="0.90902">
        <ele>214.931</ele>
        <time>2019-11-01T10:52:26.001Z</time>
      </trkpt>
      <trkpt lat="45.19579" lon="0.91037">
        <ele>194.395</ele>
        <time>2019-11-01T10:52:59.001Z</time>
      </trkpt>
      <trkpt lat="45.1987" lon="0.90947">
        <ele>171.386</ele>
        <time>2019-11-01T10:53:29.001Z</time>
      </trkpt>
      <trkpt lat="45.20219" lon="0.90788">
        <ele>153.284</ele>
        <time>2019-11-01T10:54:02Z</time>
      </trkpt>
      <trkpt lat="45.20425" lon="0.9079">
        <ele>135.243</ele>
        <time>2019-11-01T10:54:32.001Z</time>
      </trkpt>
      <trkpt lat="45.20403" lon="0.91151">
        <ele>121.557</ele>
        <time>2019-11-01T10:55:02Z</time>
      </trkpt>
      <trkpt lat="45.20366" lon="0.91547">
        <ele>118.229</ele>
        <time>2019-11-01T10:55:35.001Z</time>
      </trkpt>
      <trkpt lat="45.20354" lon="0.91779">
        <ele>119.289</ele>
        <time>2019-11-01T10:56:05.001Z</time>
      </trkpt>
      <trkpt lat="45.20389" lon="0.92068">
        <ele>120.415</ele>
        <time>2019-11-01T10:56:38.001Z</time>
      </trkpt>
      <trkpt lat="45.20366" lon="0.92327">
        <ele>122.181</ele>
        <time>2019-11-01T10:57:08.001Z</time>
      </trkpt>
      <trkpt lat="45.20379" lon="0.92532">
        <ele>122.598</ele>
        <time>2019-11-01T10:57:41.001Z</time>
      </trkpt>
      <trkpt lat="45.20436" lon="0.92669">
        <ele>124.945</ele>
        <time>2019-11-01T10:58:11.001Z</time>
      </trkpt>
      <trkpt lat="45.20484" lon="0.92785">
        <ele>114.973</ele>
        <time>2019-11-01T10:58:44.001Z</time>
      </trkpt>
      <trkpt lat="45.20581" lon="0.92906">
        <ele>113.857</ele>
        <time>2019-11-01T10:59:14.001Z</time>
      </trkpt>
      <trkpt lat="45.20695" lon="0.93003">
        <ele>114.073</ele>
        <time>2019-11-01T10:59:47.001Z</time>
      </trkpt>
      <trkpt lat="45.20732" lon="0.93082">
        <ele>122.404</ele>
        <time>2019-11-01T11:00:17.001Z</time>
      </trkpt>
      <trkpt lat="45.20862" lon="0.93131">
        <ele>122.82</ele>
        <time>2019-11-01T11:00:47.001Z</time>
      </trkpt>
      <trkpt lat="45.21019" lon="0.93127">
        <ele>124.563</ele>
        <time>2019-11-01T11:01:20.001Z</time>
      </trkpt>
      <trkpt lat="45.21177" lon="0.9313">
        <ele>121.672</ele>
        <time>2019-11-01T11:01:50.001Z</time>
      </trkpt>
      <trkpt lat="45.21375" lon="0.9317">
        <ele>117.431</ele>
        <time>2019-11-01T11:02:23.001Z</time>
      </trkpt>
      <trkpt lat="45.21541" lon="0.93253">
        <ele>112.941</ele>
        <time>2019-11-01T11:02:53.001Z</time>
      </trkpt>
      <trkpt lat="45.21686" lon="0.93361">
        <ele>116.184</ele>
        <time>2019-11-01T11:03:26.001Z</time>
      </trkpt>
      <trkpt lat="45.21823" lon="0.93467">
        <ele>115.801</ele>
        <time>2019-11-01T11:03:56.001Z</time>
      </trkpt>
      <trkpt lat="45.21962" lon="0.93569">
        <ele>119.38</ele>
        <time>2019-11-01T11:04:29.001Z</time>
      </trkpt>
      <trkpt lat="45.2207" lon="0.93691">
        <ele>115.719</ele>
        <time>2019-11-01T11:04:59.001Z</time>
      </trkpt>
      <trkpt lat="45.22097" lon="0.9372">
        <ele>123.005</ele>
        <time>2019-11-01T11:07:35.001Z</time>
      </trkpt>
      <trkpt lat="45.22159" lon="0.93778">
        <ele>113.568</ele>
        <time>2019-11-01T11:08:05.001Z</time>
      </trkpt>
      <trkpt lat="45.22153" lon="0.93818">
        <ele>120.061</ele>
        <time>2019-11-01T11:10:50.001Z</time>
      </trkpt>
      <trkpt lat="45.22167" lon="0.93775">
        <ele>118.962</ele>
        <time>2019-11-01T11:12:44.001Z</time>
      </trkpt>
      <trkpt lat="45.22246" lon="0.93758">
        <ele>114.766</ele>
        <time>2019-11-01T11:13:14.002Z</time>
      </trkpt>
      <trkpt lat="45.22334" lon="0.93703">
        <ele>120.872</ele>
        <time>2019-11-01T11:13:47.001Z</time>
      </trkpt>
      <trkpt lat="45.22387" lon="0.93658">
        <ele>124.595</ele>
        <time>2019-11-01T11:14:17.001Z</time>
      </trkpt>
      <trkpt lat="45.2246" lon="0.93636">
        <ele>130.309</ele>
        <time>2019-11-01T11:14:50.001Z</time>
      </trkpt>
      <trkpt lat="45.22529" lon="0.93642">
        <ele>131.572</ele>
        <time>2019-11-01T11:15:20.001Z</time>
      </trkpt>
      <trkpt lat="45.22616" lon="0.93653">
        <ele>141.705</ele>
        <time>2019-11-01T11:15:53.001Z</time>
      </trkpt>
      <trkpt lat="45.2271" lon="0.93639">
        <ele>140.859</ele>
        <time>2019-11-01T11:16:23.001Z</time>
      </trkpt>
      <trkpt lat="45.22787" lon="0.93609">
        <ele>142.766</ele>
        <time>2019-11-01T11:16:56.001Z</time>
      </trkpt>
      <trkpt lat="45.22861" lon="0.93598">
        <ele>143.373</ele>
        <time>2019-11-01T11:17:26.001Z</time>
      </trkpt>
      <trkpt lat="45.22918" lon="0.93563">
        <ele>147.624</ele>
        <time>2019-11-01T11:17:56.001Z</time>
      </trkpt>
      <trkpt lat="45.2299" lon="0.93552">
        <ele>148.476</ele>
        <time>2019-11-01T11:18:29.001Z</time>
      </trkpt>
      <trkpt lat="45.23059" lon="0.93584">
        <ele>144.502</ele>
        <time>2019-11-01T11:18:59.001Z</time>
      </trkpt>
      <trkpt lat="45.23135" lon="0.93558">
        <ele>148.068</ele>
        <time>2019-11-01T11:19:32.001Z</time>
      </trkpt>
      <trkpt lat="45.23213" lon="0.93532">
        <ele>161.296</ele>
        <time>2019-11-01T11:20:02Z</time>
      </trkpt>
      <trkpt lat="45.23294" lon="0.93497">
        <ele>164.134</ele>
        <time>2019-11-01T11:20:35.001Z</time>
      </trkpt>
      <trkpt lat="45.23365" lon="0.93472">
        <ele>170.193</ele>
        <time>2019-11-01T11:21:05.001Z</time>
      </trkpt>
      <trkpt lat="45.23446" lon="0.93496">
        <ele>170.898</ele>
        <time>2019-11-01T11:21:38.001Z</time>
      </trkpt>
      <trkpt lat="45.23515" lon="0.93532">
        <ele>174.154</ele>
        <time>2019-11-01T11:22:08.001Z</time>
      </trkpt>
      <trkpt lat="45.23585" lon="0.93514">
        <ele>175.908</ele>
        <time>2019-11-01T11:22:41.001Z</time>
      </trkpt>
      <trkpt lat="45.23632" lon="0.93498">
        <ele>177.324</ele>
        <time>2019-11-01T11:23:23.001Z</time>
      </trkpt>
      <trkpt lat="45.23676" lon="0.93479">
        <ele>176.556</ele>
        <time>2019-11-01T11:24:05.001Z</time>
      </trkpt>
      <trkpt lat="45.23729" lon="0.93457">
        <ele>183.665</ele>
        <time>2019-11-01T11:44:38.001Z</time>
      </trkpt>
      <trkpt lat="45.23788" lon="0.93422">
        <ele>188.079</ele>
        <time>2019-11-01T11:45:08.001Z</time>
      </trkpt>
      <trkpt lat="45.23848" lon="0.93345">
        <ele>193.756</ele>
        <time>2019-11-01T11:45:41.001Z</time>
      </trkpt>
      <trkpt lat="45.24056" lon="0.93186">
        <ele>189.523</ele>
        <time>2019-11-01T11:46:11.001Z</time>
      </trkpt>
      <trkpt lat="45.24425" lon="0.92997">
        <ele>167.515</ele>
        <time>2019-11-01T11:46:44.001Z</time>
      </trkpt>
      <trkpt lat="45.24684" lon="0.92974">
        <ele>150.169</ele>
        <time>2019-11-01T11:47:14.001Z</time>
      </trkpt>
      <trkpt lat="45.24855" lon="0.92872">
        <ele>150.624</ele>
        <time>2019-11-01T11:47:47.001Z</time>
      </trkpt>
      <trkpt lat="45.24926" lon="0.92896">
        <ele>157.863</ele>
        <time>2019-11-01T11:48:17.001Z</time>
      </trkpt>
      <trkpt lat="45.24989" lon="0.92921">
        <ele>164.3</ele>
        <time>2019-11-01T11:48:50.001Z</time>
      </trkpt>
      <trkpt lat="45.25046" lon="0.92926">
        <ele>168.927</ele>
        <time>2019-11-01T11:49:20.001Z</time>
      </trkpt>
      <trkpt lat="45.25126" lon="0.92715">
        <ele>161.9</ele>
        <time>2019-11-01T11:49:50.001Z</time>
      </trkpt>
      <trkpt lat="45.25411" lon="0.92633">
        <ele>149.029</ele>
        <time>2019-11-01T11:50:23.001Z</time>
      </trkpt>
      <trkpt lat="45.25459" lon="0.92685">
        <ele>151.35</ele>
        <time>2019-11-01T11:50:56.001Z</time>
      </trkpt>
      <trkpt lat="45.25527" lon="0.92722">
        <ele>163.268</ele>
        <time>2019-11-01T11:51:38.001Z</time>
      </trkpt>
      <trkpt lat="45.25586" lon="0.92706">
        <ele>170.355</ele>
        <time>2019-11-01T11:52:17.001Z</time>
      </trkpt>
      <trkpt lat="45.25652" lon="0.92669">
        <ele>178.209</ele>
        <time>2019-11-01T11:53:02Z</time>
      </trkpt>
      <trkpt lat="45.25665" lon="0.92579">
        <ele>187.951</ele>
        <time>2019-11-01T11:53:38.001Z</time>
      </trkpt>
      <trkpt lat="45.25667" lon="0.92484">
        <ele>191.364</ele>
        <time>2019-11-01T11:54:11.001Z</time>
      </trkpt>
      <trkpt lat="45.25808" lon="0.92391">
        <ele>182.958</ele>
        <time>2019-11-01T11:54:41.001Z</time>
      </trkpt>
      <trkpt lat="45.26019" lon="0.91913">
        <ele>153.778</ele>
        <time>2019-11-01T11:55:14.001Z</time>
      </trkpt>
      <trkpt lat="45.26258" lon="0.91632">
        <ele>139.934</ele>
        <time>2019-11-01T11:55:44.001Z</time>
      </trkpt>
      <trkpt lat="45.26492" lon="0.91585">
        <ele>128.996</ele>
        <time>2019-11-01T11:56:14.001Z</time>
      </trkpt>
      <trkpt lat="45.26748" lon="0.91422">
        <ele>121.162</ele>
        <time>2019-11-01T11:56:47.001Z</time>
      </trkpt>
      <trkpt lat="45.2695" lon="0.91506">
        <ele>112.587</ele>
        <time>2019-11-01T11:57:17.001Z</time>
      </trkpt>
      <trkpt lat="45.27064" lon="0.91647">
        <ele>107.726</ele>
        <time>2019-11-01T11:57:50.001Z</time>
      </trkpt>
      <trkpt lat="45.27172" lon="0.91541">
        <ele>113.75</ele>
        <time>2019-11-01T11:58:20.001Z</time>
      </trkpt>
      <trkpt lat="45.27317" lon="0.91455">
        <ele>113.796</ele>
        <time>2019-11-01T11:58:53.001Z</time>
      </trkpt>
      <trkpt lat="45.27315" lon="0.91376">
        <ele>115.667</ele>
        <time>2019-11-01T12:00:17.001Z</time>
      </trkpt>
      <trkpt lat="45.27224" lon="0.91201">
        <ele>114.475</ele>
        <time>2019-11-01T12:00:50.001Z</time>
      </trkpt>
      <trkpt lat="45.2711" lon="0.91069">
        <ele>114.964</ele>
        <time>2019-11-01T12:01:20.001Z</time>
      </trkpt>
      <trkpt lat="45.27106" lon="0.90917">
        <ele>113.943</ele>
        <time>2019-11-01T12:01:53.001Z</time>
      </trkpt>
      <trkpt lat="45.27153" lon="0.90825">
        <ele>125.159</ele>
        <time>2019-11-01T12:02:23.001Z</time>
      </trkpt>
      <trkpt lat="45.27233" lon="0.90702">
        <ele>124.342</ele>
        <time>2019-11-01T12:02:53.001Z</time>
      </trkpt>
      <trkpt lat="45.27381" lon="0.90561">
        <ele>119.714</ele>
        <time>2019-11-01T12:03:26.001Z</time>
      </trkpt>
      <trkpt lat="45.27524" lon="0.90546">
        <ele>116.19</ele>
        <time>2019-11-01T12:03:56.001Z</time>
      </trkpt>
      <trkpt lat="45.27595" lon="0.90427">
        <ele>116.29</ele>
        <time>2019-11-01T12:04:29.001Z</time>
      </trkpt>
      <trkpt lat="45.27657" lon="0.90263">
        <ele>122.498</ele>
        <time>2019-11-01T12:04:59.001Z</time>
      </trkpt>
      <trkpt lat="45.27752" lon="0.90104">
        <ele>124.32</ele>
        <time>2019-11-01T12:05:32.001Z</time>
      </trkpt>
      <trkpt lat="45.27882" lon="0.90044">
        <ele>122.771</ele>
        <time>2019-11-01T12:06:02Z</time>
      </trkpt>
      <trkpt lat="45.28037" lon="0.90018">
        <ele>123.799</ele>
        <time>2019-11-01T12:06:35.001Z</time>
      </trkpt>
      <trkpt lat="45.28188" lon="0.9005">
        <ele>126.161</ele>
        <time>2019-11-01T12:07:05.001Z</time>
      </trkpt>
      <trkpt lat="45.28356" lon="0.90035">
        <ele>119.713</ele>
        <time>2019-11-01T12:07:38.001Z</time>
      </trkpt>
      <trkpt lat="45.2847" lon="0.90128">
        <ele>128.49</ele>
        <time>2019-11-01T12:08:08.001Z</time>
      </trkpt>
      <trkpt lat="45.28533" lon="0.89986">
        <ele>125.52</ele>
        <time>2019-11-01T12:08:38.001Z</time>
      </trkpt>
      <trkpt lat="45.2862" lon="0.89821">
        <ele>129.824</ele>
        <time>2019-11-01T12:09:11.001Z</time>
      </trkpt>
      <trkpt lat="45.28706" lon="0.89695">
        <ele>134.844</ele>
        <time>2019-11-01T12:09:41.001Z</time>
      </trkpt>
      <trkpt lat="45.28845" lon="0.8957">
        <ele>138.818</ele>
        <time>2019-11-01T12:10:14.001Z</time>
      </trkpt>
      <trkpt lat="45.28981" lon="0.89571">
        <ele>138.879</ele>
        <time>2019-11-01T12:10:44.001Z</time>
      </trkpt>
      <trkpt lat="45.29127" lon="0.89673">
        <ele>139.756</ele>
        <time>2019-11-01T12:11:17.001Z</time>
      </trkpt>
      <trkpt lat="45.29226" lon="0.89587">
        <ele>134.529</ele>
        <time>2019-11-01T12:11:47.001Z</time>
      </trkpt>
      <trkpt lat="45.29244" lon="0.8944">
        <ele>141.544</ele>
        <time>2019-11-01T12:12:20.001Z</time>
      </trkpt>
      <trkpt lat="45.29296" lon="0.89372">
        <ele>140.162</ele>
        <time>2019-11-01T12:12:50.001Z</time>
      </trkpt>
      <trkpt lat="45.2935" lon="0.89321">
        <ele>147.451</ele>
        <time>2019-11-01T12:13:26.001Z</time>
      </trkpt>
      <trkpt lat="45.29397" lon="0.89272">
        <ele>155.433</ele>
        <time>2019-11-01T12:13:56.001Z</time>
      </trkpt>
      <trkpt lat="45.29453" lon="0.89215">
        <ele>157.203</ele>
        <time>2019-11-01T12:14:26.001Z</time>
      </trkpt>
      <trkpt lat="45.29519" lon="0.89148">
        <ele>159.015</ele>
        <time>2019-11-01T12:14:59.001Z</time>
      </trkpt>
      <trkpt lat="45.2956" lon="0.89062">
        <ele>160.996</ele>
        <time>2019-11-01T12:15:29.001Z</time>
      </trkpt>
      <trkpt lat="45.29613" lon="0.88967">
        <ele>160.521</ele>
        <time>2019-11-01T12:16:02Z</time>
      </trkpt>
      <trkpt lat="45.29671" lon="0.88888">
        <ele>163.637</ele>
        <time>2019-11-01T12:16:32.001Z</time>
      </trkpt>
      <trkpt lat="45.29729" lon="0.8881">
        <ele>160.899</ele>
        <time>2019-11-01T12:17:05.001Z</time>
      </trkpt>
      <trkpt lat="45.29784" lon="0.88738">
        <ele>162.77</ele>
        <time>2019-11-01T12:17:35.001Z</time>
      </trkpt>
      <trkpt lat="45.29849" lon="0.8866">
        <ele>166.854</ele>
        <time>2019-11-01T12:18:08.001Z</time>
      </trkpt>
      <trkpt lat="45.29902" lon="0.8859">
        <ele>173.194</ele>
        <time>2019-11-01T12:18:38.001Z</time>
      </trkpt>
      <trkpt lat="45.2994" lon="0.88498">
        <ele>173.799</ele>
        <time>2019-11-01T12:19:08.001Z</time>
      </trkpt>
      <trkpt lat="45.29954" lon="0.88391">
        <ele>177.81</ele>
        <time>2019-11-01T12:19:41.001Z</time>
      </trkpt>
      <trkpt lat="45.29966" lon="0.88299">
        <ele>182.264</ele>
        <time>2019-11-01T12:20:11.001Z</time>
      </trkpt>
      <trkpt lat="45.29991" lon="0.88138">
        <ele>183.386</ele>
        <time>2019-11-01T12:20:44.001Z</time>
      </trkpt>
      <trkpt lat="45.30139" lon="0.87889">
        <ele>174.139</ele>
        <time>2019-11-01T12:21:14.001Z</time>
      </trkpt>
      <trkpt lat="45.30369" lon="0.87612">
        <ele>166.359</ele>
        <time>2019-11-01T12:21:47.001Z</time>
      </trkpt>
      <trkpt lat="45.30466" lon="0.87482">
        <ele>164.498</ele>
        <time>2019-11-01T12:22:17.001Z</time>
      </trkpt>
      <trkpt lat="45.3049" lon="0.87388">
        <ele>168.911</ele>
        <time>2019-11-01T12:37:29.001Z</time>
      </trkpt>
      <trkpt lat="45.30513" lon="0.87303">
        <ele>174.856</ele>
        <time>2019-11-01T12:38:29.001Z</time>
      </trkpt>
      <trkpt lat="45.30565" lon="0.87308">
        <ele>176.063</ele>
        <time>2019-11-01T12:47:50.001Z</time>
      </trkpt>
      <trkpt lat="45.30645" lon="0.87346">
        <ele>182.273</ele>
        <time>2019-11-01T12:48:20.001Z</time>
      </trkpt>
      <trkpt lat="45.30734" lon="0.87362">
        <ele>186.881</ele>
        <time>2019-11-01T12:48:50.001Z</time>
      </trkpt>
      <trkpt lat="45.30847" lon="0.87388">
        <ele>189.775</ele>
        <time>2019-11-01T12:49:23.001Z</time>
      </trkpt>
      <trkpt lat="45.30952" lon="0.87409">
        <ele>189.044</ele>
        <time>2019-11-01T12:49:53.001Z</time>
      </trkpt>
      <trkpt lat="45.31059" lon="0.87429">
        <ele>189.833</ele>
        <time>2019-11-01T12:50:26.001Z</time>
      </trkpt>
      <trkpt lat="45.31153" lon="0.87447">
        <ele>195.364</ele>
        <time>2019-11-01T12:50:56.001Z</time>
      </trkpt>
      <trkpt lat="45.31264" lon="0.87441">
        <ele>195.155</ele>
        <time>2019-11-01T12:51:29.001Z</time>
      </trkpt>
      <trkpt lat="45.31374" lon="0.87363">
        <ele>193.813</ele>
        <time>2019-11-01T12:51:59.001Z</time>
      </trkpt>
      <trkpt lat="45.31525" lon="0.87233">
        <ele>196.653</ele>
        <time>2019-11-01T12:52:32.001Z</time>
      </trkpt>
      <trkpt lat="45.31682" lon="0.87109">
        <ele>199.552</ele>
        <time>2019-11-01T12:53:02Z</time>
      </trkpt>
      <trkpt lat="45.31868" lon="0.87112">
        <ele>196.824</ele>
        <time>2019-11-01T12:53:35.001Z</time>
      </trkpt>
      <trkpt lat="45.31988" lon="0.87143">
        <ele>194.383</ele>
        <time>2019-11-01T12:54:05.001Z</time>
      </trkpt>
      <trkpt lat="45.32091" lon="0.8716">
        <ele>197.124</ele>
        <time>2019-11-01T12:54:35.001Z</time>
      </trkpt>
      <trkpt lat="45.32253" lon="0.87265">
        <ele>190.491</ele>
        <time>2019-11-01T12:55:08.001Z</time>
      </trkpt>
      <trkpt lat="45.32396" lon="0.87344">
        <ele>187.784</ele>
        <time>2019-11-01T12:55:38.001Z</time>
      </trkpt>
      <trkpt lat="45.32584" lon="0.87453">
        <ele>184.651</ele>
        <time>2019-11-01T12:56:11.001Z</time>
      </trkpt>
      <trkpt lat="45.32768" lon="0.87554">
        <ele>185.603</ele>
        <time>2019-11-01T12:56:41.001Z</time>
      </trkpt>
      <trkpt lat="45.32955" lon="0.87659">
        <ele>183.912</ele>
        <time>2019-11-01T12:57:14.001Z</time>
      </trkpt>
      <trkpt lat="45.33117" lon="0.8775">
        <ele>181.777</ele>
        <time>2019-11-01T12:57:44.001Z</time>
      </trkpt>
      <trkpt lat="45.33217" lon="0.87807">
        <ele>186.338</ele>
        <time>2019-11-01T12:58:17.001Z</time>
      </trkpt>
      <trkpt lat="45.33297" lon="0.87852">
        <ele>191.494</ele>
        <time>2019-11-01T12:58:47.001Z</time>
      </trkpt>
      <trkpt lat="45.3339" lon="0.87905">
        <ele>193.899</ele>
        <time>2019-11-01T12:59:20.001Z</time>
      </trkpt>
      <trkpt lat="45.33488" lon="0.87959">
        <ele>199.097</ele>
        <time>2019-11-01T12:59:50.001Z</time>
      </trkpt>
      <trkpt lat="45.33614" lon="0.8803">
        <ele>205.075</ele>
        <time>2019-11-01T13:00:20.001Z</time>
      </trkpt>
      <trkpt lat="45.33794" lon="0.88129">
        <ele>202.477</ele>
        <time>2019-11-01T13:00:53.001Z</time>
      </trkpt>
      <trkpt lat="45.33962" lon="0.88222">
        <ele>198.275</ele>
        <time>2019-11-01T13:01:23.001Z</time>
      </trkpt>
      <trkpt lat="45.34262" lon="0.88384">
        <ele>186.029</ele>
        <time>2019-11-01T13:01:56.001Z</time>
      </trkpt>
      <trkpt lat="45.34495" lon="0.88512">
        <ele>177.834</ele>
        <time>2019-11-01T13:02:26.001Z</time>
      </trkpt>
      <trkpt lat="45.34721" lon="0.8863">
        <ele>174.978</ele>
        <time>2019-11-01T13:02:59.001Z</time>
      </trkpt>
      <trkpt lat="45.34832" lon="0.88693">
        <ele>180.007</ele>
        <time>2019-11-01T13:03:29.001Z</time>
      </trkpt>
      <trkpt lat="45.3492" lon="0.88742">
        <ele>187.48</ele>
        <time>2019-11-01T13:04:02Z</time>
      </trkpt>
      <trkpt lat="45.34989" lon="0.88779">
        <ele>193.753</ele>
        <time>2019-11-01T13:04:32.001Z</time>
      </trkpt>
      <trkpt lat="45.3507" lon="0.88826">
        <ele>196.45</ele>
        <time>2019-11-01T13:05:05.001Z</time>
      </trkpt>
      <trkpt lat="45.3514" lon="0.88867">
        <ele>198.589</ele>
        <time>2019-11-01T13:05:35.001Z</time>
      </trkpt>
      <trkpt lat="45.35216" lon="0.88908">
        <ele>201.878</ele>
        <time>2019-11-01T13:06:05.001Z</time>
      </trkpt>
      <trkpt lat="45.353" lon="0.88937">
        <ele>205.411</ele>
        <time>2019-11-01T13:06:38.001Z</time>
      </trkpt>
      <trkpt lat="45.35424" lon="0.89011">
        <ele>200.156</ele>
        <time>2019-11-01T13:07:08.001Z</time>
      </trkpt>
      <trkpt lat="45.35571" lon="0.89088">
        <ele>198.246</ele>
        <time>2019-11-01T13:07:41.001Z</time>
      </trkpt>
      <trkpt lat="45.35674" lon="0.89147">
        <ele>197.376</ele>
        <time>2019-11-01T13:08:11.001Z</time>
      </trkpt>
      <trkpt lat="45.35785" lon="0.89208">
        <ele>200.862</ele>
        <time>2019-11-01T13:08:44.001Z</time>
      </trkpt>
      <trkpt lat="45.35958" lon="0.89304">
        <ele>202.672</ele>
        <time>2019-11-01T13:09:14.001Z</time>
      </trkpt>
      <trkpt lat="45.36271" lon="0.89485">
        <ele>186.308</ele>
        <time>2019-11-01T13:09:47.001Z</time>
      </trkpt>
      <trkpt lat="45.36342" lon="0.89528">
        <ele>188.742</ele>
        <time>2019-11-01T13:10:17.001Z</time>
      </trkpt>
      <trkpt lat="45.36432" lon="0.89581">
        <ele>195.277</ele>
        <time>2019-11-01T13:10:50.001Z</time>
      </trkpt>
      <trkpt lat="45.36598" lon="0.89678">
        <ele>188.101</ele>
        <time>2019-11-01T13:11:20.001Z</time>
      </trkpt>
      <trkpt lat="45.36805" lon="0.89857">
        <ele>183.299</ele>
        <time>2019-11-01T13:11:50.001Z</time>
      </trkpt>
      <trkpt lat="45.36885" lon="0.89891">
        <ele>185.057</ele>
        <time>2019-11-01T13:12:23.001Z</time>
      </trkpt>
      <trkpt lat="45.36947" lon="0.89916">
        <ele>190.756</ele>
        <time>2019-11-01T13:12:53.001Z</time>
      </trkpt>
      <trkpt lat="45.37159" lon="0.90009">
        <ele>185.533</ele>
        <time>2019-11-01T13:13:26.001Z</time>
      </trkpt>
      <trkpt lat="45.37251" lon="0.90046">
        <ele>184.367</ele>
        <time>2019-11-01T13:13:56.001Z</time>
      </trkpt>
      <trkpt lat="45.37321" lon="0.90076">
        <ele>195.028</ele>
        <time>2019-11-01T13:14:29.001Z</time>
      </trkpt>
      <trkpt lat="45.37391" lon="0.9011">
        <ele>199.216</ele>
        <time>2019-11-01T13:14:59.001Z</time>
      </trkpt>
      <trkpt lat="45.37468" lon="0.90139">
        <ele>199.544</ele>
        <time>2019-11-01T13:15:32.001Z</time>
      </trkpt>
      <trkpt lat="45.3753" lon="0.90164">
        <ele>207.406</ele>
        <time>2019-11-01T13:16:02Z</time>
      </trkpt>
      <trkpt lat="45.37637" lon="0.90213">
        <ele>208.67</ele>
        <time>2019-11-01T13:16:35.001Z</time>
      </trkpt>
      <trkpt lat="45.37764" lon="0.90267">
        <ele>205.062</ele>
        <time>2019-11-01T13:17:05.001Z</time>
      </trkpt>
      <trkpt lat="45.37872" lon="0.90315">
        <ele>206.583</ele>
        <time>2019-11-01T13:17:35.001Z</time>
      </trkpt>
      <trkpt lat="45.38023" lon="0.90351">
        <ele>206.671</ele>
        <time>2019-11-01T13:18:08.001Z</time>
      </trkpt>
      <trkpt lat="45.38092" lon="0.9036">
        <ele>210.73</ele>
        <time>2019-11-01T13:18:38.001Z</time>
      </trkpt>
      <trkpt lat="45.3816" lon="0.90376">
        <ele>215.362</ele>
        <time>2019-11-01T13:19:11.001Z</time>
      </trkpt>
      <trkpt lat="45.38227" lon="0.90392">
        <ele>217.467</ele>
        <time>2019-11-01T13:19:41.001Z</time>
      </trkpt>
      <trkpt lat="45.38324" lon="0.90409">
        <ele>226.052</ele>
        <time>2019-11-01T13:20:14.001Z</time>
      </trkpt>
      <trkpt lat="45.38435" lon="0.90433">
        <ele>223.793</ele>
        <time>2019-11-01T13:20:44.001Z</time>
      </trkpt>
      <trkpt lat="45.38544" lon="0.90446">
        <ele>224.712</ele>
        <time>2019-11-01T13:21:17.001Z</time>
      </trkpt>
      <trkpt lat="45.38695" lon="0.90441">
        <ele>225.446</ele>
        <time>2019-11-01T13:21:47.001Z</time>
      </trkpt>
      <trkpt lat="45.38861" lon="0.90503">
        <ele>223.905</ele>
        <time>2019-11-01T13:22:20.001Z</time>
      </trkpt>
      <trkpt lat="45.39018" lon="0.90559">
        <ele>218.937</ele>
        <time>2019-11-01T13:22:50.001Z</time>
      </trkpt>
      <trkpt lat="45.39224" lon="0.90632">
        <ele>220.145</ele>
        <time>2019-11-01T13:23:20.001Z</time>
      </trkpt>
      <trkpt lat="45.3936" lon="0.9068">
        <ele>220.193</ele>
        <time>2019-11-01T13:23:53.001Z</time>
      </trkpt>
      <trkpt lat="45.39433" lon="0.90708">
        <ele>217.848</ele>
        <time>2019-11-01T13:24:23.001Z</time>
      </trkpt>
      <trkpt lat="45.39509" lon="0.90735">
        <ele>222.014</ele>
        <time>2019-11-01T13:24:56.001Z</time>
      </trkpt>
      <trkpt lat="45.39571" lon="0.90755">
        <ele>227.141</ele>
        <time>2019-11-01T13:25:26.001Z</time>
      </trkpt>
      <trkpt lat="45.39633" lon="0.90777">
        <ele>233.753</ele>
        <time>2019-11-01T13:25:59.001Z</time>
      </trkpt>
      <trkpt lat="45.39681" lon="0.90813">
        <ele>241.442</ele>
        <time>2019-11-01T13:26:29.001Z</time>
      </trkpt>
      <trkpt lat="45.39749" lon="0.90913">
        <ele>242.688</ele>
        <time>2019-11-01T13:27:02Z</time>
      </trkpt>
      <trkpt lat="45.39837" lon="0.91041">
        <ele>241.739</ele>
        <time>2019-11-01T13:27:32.001Z</time>
      </trkpt>
      <trkpt lat="45.39919" lon="0.91165">
        <ele>243.046</ele>
        <time>2019-11-01T13:28:05.001Z</time>
      </trkpt>
      <trkpt lat="45.40014" lon="0.91302">
        <ele>241.276</ele>
        <time>2019-11-01T13:28:35.001Z</time>
      </trkpt>
      <trkpt lat="45.40118" lon="0.91454">
        <ele>234.607</ele>
        <time>2019-11-01T13:29:05.001Z</time>
      </trkpt>
      <trkpt lat="45.4024" lon="0.91528">
        <ele>231.793</ele>
        <time>2019-11-01T13:29:38.001Z</time>
      </trkpt>
      <trkpt lat="45.40349" lon="0.91587">
        <ele>234.13</ele>
        <time>2019-11-01T13:30:08.001Z</time>
      </trkpt>
      <trkpt lat="45.40433" lon="0.91644">
        <ele>234.886</ele>
        <time>2019-11-01T13:30:41.001Z</time>
      </trkpt>
      <trkpt lat="45.4049" lon="0.91677">
        <ele>240.549</ele>
        <time>2019-11-01T13:31:11.001Z</time>
      </trkpt>
      <trkpt lat="45.40546" lon="0.91711">
        <ele>247.075</ele>
        <time>2019-11-01T13:31:44.001Z</time>
      </trkpt>
      <trkpt lat="45.40605" lon="0.91754">
        <ele>253.131</ele>
        <time>2019-11-01T13:32:14.001Z</time>
      </trkpt>
      <trkpt lat="45.40661" lon="0.91823">
        <ele>257.395</ele>
        <time>2019-11-01T13:32:47.001Z</time>
      </trkpt>
      <trkpt lat="45.40708" lon="0.91891">
        <ele>259.695</ele>
        <time>2019-11-01T13:33:17.001Z</time>
      </trkpt>
      <trkpt lat="45.40757" lon="0.9197">
        <ele>262.66</ele>
        <time>2019-11-01T13:33:50.001Z</time>
      </trkpt>
      <trkpt lat="45.40802" lon="0.92046">
        <ele>263.933</ele>
        <time>2019-11-01T13:34:20.001Z</time>
      </trkpt>
      <trkpt lat="45.40871" lon="0.92118">
        <ele>265.013</ele>
        <time>2019-11-01T13:34:50.001Z</time>
      </trkpt>
      <trkpt lat="45.40964" lon="0.92192">
        <ele>265.994</ele>
        <time>2019-11-01T13:35:23.001Z</time>
      </trkpt>
      <trkpt lat="45.41041" lon="0.9222">
        <ele>274.773</ele>
        <time>2019-11-01T13:35:53.001Z</time>
      </trkpt>
      <trkpt lat="45.41132" lon="0.92253">
        <ele>280.214</ele>
        <time>2019-11-01T13:36:26.001Z</time>
      </trkpt>
      <trkpt lat="45.41225" lon="0.92224">
        <ele>282.096</ele>
        <time>2019-11-01T13:36:56.001Z</time>
      </trkpt>
      <trkpt lat="45.41346" lon="0.92152">
        <ele>282.286</ele>
        <time>2019-11-01T13:37:29.001Z</time>
      </trkpt>
      <trkpt lat="45.41426" lon="0.9208">
        <ele>285.552</ele>
        <time>2019-11-01T13:37:59.001Z</time>
      </trkpt>
      <trkpt lat="45.41441" lon="0.92028">
        <ele>275.484</ele>
        <time>2019-11-01T13:38:50.001Z</time>
      </trkpt>
      <trkpt lat="45.41445" lon="0.92022">
        <ele>278.98</ele>
        <time>2019-11-01T13:47:02Z</time>
      </trkpt>
      <trkpt lat="45.41447" lon="0.92022">
        <ele>288.399</ele>
        <time>2019-11-01T13:58:29.001Z</time>
      </trkpt>
      <trkpt lat="45.41447" lon="0.92022">
        <ele>289.697</ele>
        <time>2019-11-01T14:06:29.001Z</time>
      </trkpt>
      <trkpt lat="45.4144" lon="0.92013">
        <ele>295.439</ele>
        <time>2019-11-01T14:07:32.001Z</time>
      </trkpt>
      <trkpt lat="45.41441" lon="0.92016">
        <ele>294.529</ele>
        <time>2019-11-01T14:08:32.001Z</time>
      </trkpt>
      <trkpt lat="45.41441" lon="0.92014">
        <ele>295.8</ele>
        <time>2019-11-01T14:12:02Z</time>
      </trkpt>
      <trkpt lat="45.41465" lon="0.91979">
        <ele>281.851</ele>
        <time>2019-11-01T14:14:50.001Z</time>
      </trkpt>
      <trkpt lat="45.41513" lon="0.9193">
        <ele>283.244</ele>
        <time>2019-11-01T14:15:20.001Z</time>
      </trkpt>
      <trkpt lat="45.41537" lon="0.918">
        <ele>274.12</ele>
        <time>2019-11-01T14:15:53.001Z</time>
      </trkpt>
      <trkpt lat="45.41526" lon="0.91765">
        <ele>278.269</ele>
        <time>2019-11-01T14:40:32.001Z</time>
      </trkpt>
      <trkpt lat="45.41558" lon="0.91616">
        <ele>277.307</ele>
        <time>2019-11-01T14:41:05.001Z</time>
      </trkpt>
      <trkpt lat="45.41606" lon="0.91453">
        <ele>274.39</ele>
        <time>2019-11-01T14:41:35.001Z</time>
      </trkpt>
      <trkpt lat="45.41589" lon="0.91208">
        <ele>259.444</ele>
        <time>2019-11-01T14:42:08.001Z</time>
      </trkpt>
      <trkpt lat="45.41695" lon="0.9104">
        <ele>251.067</ele>
        <time>2019-11-01T14:42:38.001Z</time>
      </trkpt>
      <trkpt lat="45.41836" lon="0.90819">
        <ele>230.209</ele>
        <time>2019-11-01T14:43:08.001Z</time>
      </trkpt>
      <trkpt lat="45.41998" lon="0.90468">
        <ele>211.825</ele>
        <time>2019-11-01T14:43:41.001Z</time>
      </trkpt>
      <trkpt lat="45.42054" lon="0.90161">
        <ele>203.778</ele>
        <time>2019-11-01T14:44:11.001Z</time>
      </trkpt>
      <trkpt lat="45.42114" lon="0.89948">
        <ele>199.474</ele>
        <time>2019-11-01T14:44:44.001Z</time>
      </trkpt>
      <trkpt lat="45.42156" lon="0.89747">
        <ele>201.695</ele>
        <time>2019-11-01T14:45:14.001Z</time>
      </trkpt>
      <trkpt lat="45.4229" lon="0.89504">
        <ele>198.165</ele>
        <time>2019-11-01T14:45:47.001Z</time>
      </trkpt>
      <trkpt lat="45.42424" lon="0.8934">
        <ele>198.134</ele>
        <time>2019-11-01T14:46:17.001Z</time>
      </trkpt>
      <trkpt lat="45.42525" lon="0.8921">
        <ele>200.226</ele>
        <time>2019-11-01T14:46:50.001Z</time>
      </trkpt>
      <trkpt lat="45.42607" lon="0.89113">
        <ele>202.472</ele>
        <time>2019-11-01T14:47:20.001Z</time>
      </trkpt>
      <trkpt lat="45.42625" lon="0.88973">
        <ele>204.291</ele>
        <time>2019-11-01T14:47:53.001Z</time>
      </trkpt>
      <trkpt lat="45.42607" lon="0.88775">
        <ele>200.968</ele>
        <time>2019-11-01T14:48:23.001Z</time>
      </trkpt>
      <trkpt lat="45.42591" lon="0.88562">
        <ele>204.141</ele>
        <time>2019-11-01T14:48:53.001Z</time>
      </trkpt>
      <trkpt lat="45.42573" lon="0.88335">
        <ele>196.321</ele>
        <time>2019-11-01T14:49:26.001Z</time>
      </trkpt>
      <trkpt lat="45.4255" lon="0.88125">
        <ele>188.066</ele>
        <time>2019-11-01T14:49:56.001Z</time>
      </trkpt>
      <trkpt lat="45.4254" lon="0.87921">
        <ele>186.866</ele>
        <time>2019-11-01T14:50:29.001Z</time>
      </trkpt>
      <trkpt lat="45.42521" lon="0.87724">
        <ele>180.433</ele>
        <time>2019-11-01T14:50:59.001Z</time>
      </trkpt>
      <trkpt lat="45.42515" lon="0.87503">
        <ele>180.783</ele>
        <time>2019-11-01T14:51:32.001Z</time>
      </trkpt>
      <trkpt lat="45.42538" lon="0.87294">
        <ele>180.08</ele>
        <time>2019-11-01T14:52:02Z</time>
      </trkpt>
      <trkpt lat="45.42598" lon="0.87097">
        <ele>175.837</ele>
        <time>2019-11-01T14:52:35.001Z</time>
      </trkpt>
      <trkpt lat="45.42676" lon="0.86933">
        <ele>169.668</ele>
        <time>2019-11-01T14:53:05.001Z</time>
      </trkpt>
      <trkpt lat="45.42729" lon="0.86846">
        <ele>174.213</ele>
        <time>2019-11-01T14:53:59.001Z</time>
      </trkpt>
      <trkpt lat="45.42792" lon="0.86738">
        <ele>175.326</ele>
        <time>2019-11-01T14:54:29.001Z</time>
      </trkpt>
      <trkpt lat="45.42852" lon="0.86607">
        <ele>174.86</ele>
        <time>2019-11-01T14:54:59.001Z</time>
      </trkpt>
      <trkpt lat="45.42881" lon="0.86413">
        <ele>176.542</ele>
        <time>2019-11-01T14:55:32.001Z</time>
      </trkpt>
      <trkpt lat="45.42866" lon="0.86205">
        <ele>179.539</ele>
        <time>2019-11-01T14:56:02Z</time>
      </trkpt>
      <trkpt lat="45.42791" lon="0.85998">
        <ele>172.178</ele>
        <time>2019-11-01T14:56:35.001Z</time>
      </trkpt>
      <trkpt lat="45.42748" lon="0.85795">
        <ele>170.17</ele>
        <time>2019-11-01T14:57:05.001Z</time>
      </trkpt>
      <trkpt lat="45.42736" lon="0.85595">
        <ele>170.577</ele>
        <time>2019-11-01T14:57:38.001Z</time>
      </trkpt>
      <trkpt lat="45.42715" lon="0.8544">
        <ele>171.862</ele>
        <time>2019-11-01T14:58:08.001Z</time>
      </trkpt>
      <trkpt lat="45.4267" lon="0.85254">
        <ele>168.23</ele>
        <time>2019-11-01T14:58:41.001Z</time>
      </trkpt>
      <trkpt lat="45.42642" lon="0.85083">
        <ele>163.748</ele>
        <time>2019-11-01T14:59:11.001Z</time>
      </trkpt>
      <trkpt lat="45.42619" lon="0.84895">
        <ele>160.822</ele>
        <time>2019-11-01T14:59:44.001Z</time>
      </trkpt>
      <trkpt lat="45.42608" lon="0.84739">
        <ele>161.786</ele>
        <time>2019-11-01T15:00:14.001Z</time>
      </trkpt>
      <trkpt lat="45.42607" lon="0.84589">
        <ele>161.094</ele>
        <time>2019-11-01T15:00:44.001Z</time>
      </trkpt>
      <trkpt lat="45.42642" lon="0.84426">
        <ele>160.543</ele>
        <time>2019-11-01T15:01:17.001Z</time>
      </trkpt>
      <trkpt lat="45.42676" lon="0.84282">
        <ele>158.125</ele>
        <time>2019-11-01T15:01:47.001Z</time>
      </trkpt>
      <trkpt lat="45.42719" lon="0.84133">
        <ele>157.192</ele>
        <time>2019-11-01T15:02:20.001Z</time>
      </trkpt>
      <trkpt lat="45.4275" lon="0.84012">
        <ele>161.452</ele>
        <time>2019-11-01T15:02:50.001Z</time>
      </trkpt>
      <trkpt lat="45.42789" lon="0.83872">
        <ele>168.83</ele>
        <time>2019-11-01T15:03:23.001Z</time>
      </trkpt>
      <trkpt lat="45.42864" lon="0.83743">
        <ele>169.008</ele>
        <time>2019-11-01T15:03:53.001Z</time>
      </trkpt>
      <trkpt lat="45.42941" lon="0.8364">
        <ele>168.357</ele>
        <time>2019-11-01T15:04:26.001Z</time>
      </trkpt>
      <trkpt lat="45.42994" lon="0.83576">
        <ele>171.412</ele>
        <time>2019-11-01T15:04:56.001Z</time>
      </trkpt>
      <trkpt lat="45.43058" lon="0.83491">
        <ele>173.031</ele>
        <time>2019-11-01T15:05:29.001Z</time>
      </trkpt>
      <trkpt lat="45.43105" lon="0.83414">
        <ele>174.428</ele>
        <time>2019-11-01T15:05:59.001Z</time>
      </trkpt>
      <trkpt lat="45.43149" lon="0.83325">
        <ele>180.412</ele>
        <time>2019-11-01T15:06:29.001Z</time>
      </trkpt>
      <trkpt lat="45.43203" lon="0.83208">
        <ele>177.417</ele>
        <time>2019-11-01T15:07:02Z</time>
      </trkpt>
      <trkpt lat="45.43234" lon="0.83117">
        <ele>180.914</ele>
        <time>2019-11-01T15:07:32.001Z</time>
      </trkpt>
      <trkpt lat="45.43277" lon="0.82999">
        <ele>189.461</ele>
        <time>2019-11-01T15:08:05.001Z</time>
      </trkpt>
      <trkpt lat="45.43314" lon="0.82891">
        <ele>193.519</ele>
        <time>2019-11-01T15:08:35.001Z</time>
      </trkpt>
      <trkpt lat="45.43363" lon="0.82781">
        <ele>194.798</ele>
        <time>2019-11-01T15:09:08.001Z</time>
      </trkpt>
      <trkpt lat="45.43418" lon="0.82687">
        <ele>195.651</ele>
        <time>2019-11-01T15:09:38.001Z</time>
      </trkpt>
      <trkpt lat="45.43489" lon="0.8261">
        <ele>199.321</ele>
        <time>2019-11-01T15:10:11.001Z</time>
      </trkpt>
      <trkpt lat="45.43565" lon="0.82555">
        <ele>201.352</ele>
        <time>2019-11-01T15:10:41.001Z</time>
      </trkpt>
      <trkpt lat="45.43656" lon="0.82507">
        <ele>197.484</ele>
        <time>2019-11-01T15:11:14.001Z</time>
      </trkpt>
      <trkpt lat="45.43738" lon="0.82491">
        <ele>199.75</ele>
        <time>2019-11-01T15:11:44.001Z</time>
      </trkpt>
      <trkpt lat="45.43827" lon="0.82486">
        <ele>204.498</ele>
        <time>2019-11-01T15:12:14.001Z</time>
      </trkpt>
      <trkpt lat="45.43918" lon="0.82487">
        <ele>204.742</ele>
        <time>2019-11-01T15:12:47.001Z</time>
      </trkpt>
      <trkpt lat="45.43996" lon="0.82483">
        <ele>211.455</ele>
        <time>2019-11-01T15:13:17.001Z</time>
      </trkpt>
      <trkpt lat="45.44087" lon="0.82477">
        <ele>223.783</ele>
        <time>2019-11-01T15:13:50.001Z</time>
      </trkpt>
      <trkpt lat="45.44179" lon="0.82481">
        <ele>228.754</ele>
        <time>2019-11-01T15:14:20.001Z</time>
      </trkpt>
      <trkpt lat="45.44266" lon="0.82488">
        <ele>212.354</ele>
        <time>2019-11-01T15:14:53.001Z</time>
      </trkpt>
      <trkpt lat="45.44344" lon="0.82489">
        <ele>207.557</ele>
        <time>2019-11-01T15:15:23.001Z</time>
      </trkpt>
      <trkpt lat="45.44429" lon="0.82485">
        <ele>212.438</ele>
        <time>2019-11-01T15:15:56.001Z</time>
      </trkpt>
      <trkpt lat="45.44519" lon="0.82489">
        <ele>213.274</ele>
        <time>2019-11-01T15:16:26.001Z</time>
      </trkpt>
      <trkpt lat="45.44628" lon="0.82481">
        <ele>214.098</ele>
        <time>2019-11-01T15:16:59.001Z</time>
      </trkpt>
      <trkpt lat="45.44714" lon="0.82445">
        <ele>215.849</ele>
        <time>2019-11-01T15:17:29.001Z</time>
      </trkpt>
      <trkpt lat="45.44804" lon="0.82367">
        <ele>220.75</ele>
        <time>2019-11-01T15:17:59.001Z</time>
      </trkpt>
      <trkpt lat="45.44915" lon="0.82223">
        <ele>219.058</ele>
        <time>2019-11-01T15:18:32.001Z</time>
      </trkpt>
      <trkpt lat="45.4498" lon="0.82099">
        <ele>219.031</ele>
        <time>2019-11-01T15:19:02Z</time>
      </trkpt>
      <trkpt lat="45.45083" lon="0.81909">
        <ele>210.009</ele>
        <time>2019-11-01T15:19:35.001Z</time>
      </trkpt>
      <trkpt lat="45.45168" lon="0.81749">
        <ele>204.853</ele>
        <time>2019-11-01T15:20:05.001Z</time>
      </trkpt>
      <trkpt lat="45.45279" lon="0.81541">
        <ele>195.666</ele>
        <time>2019-11-01T15:20:38.001Z</time>
      </trkpt>
      <trkpt lat="45.45333" lon="0.81382">
        <ele>195.242</ele>
        <time>2019-11-01T15:21:08.001Z</time>
      </trkpt>
      <trkpt lat="45.45376" lon="0.81154">
        <ele>194.622</ele>
        <time>2019-11-01T15:21:41.001Z</time>
      </trkpt>
      <trkpt lat="45.45392" lon="0.80958">
        <ele>193.768</ele>
        <time>2019-11-01T15:22:11.001Z</time>
      </trkpt>
      <trkpt lat="45.45418" lon="0.80755">
        <ele>198.026</ele>
        <time>2019-11-01T15:22:44.001Z</time>
      </trkpt>
      <trkpt lat="45.45477" lon="0.80558">
        <ele>200.105</ele>
        <time>2019-11-01T15:23:14.001Z</time>
      </trkpt>
      <trkpt lat="45.45543" lon="0.80394">
        <ele>193.334</ele>
        <time>2019-11-01T15:23:44.001Z</time>
      </trkpt>
      <trkpt lat="45.45627" lon="0.80236">
        <ele>197.51</ele>
        <time>2019-11-01T15:24:17.001Z</time>
      </trkpt>
      <trkpt lat="45.45722" lon="0.801">
        <ele>195.196</ele>
        <time>2019-11-01T15:24:47.001Z</time>
      </trkpt>
      <trkpt lat="45.45788" lon="0.79993">
        <ele>196.04</ele>
        <time>2019-11-01T15:25:20.001Z</time>
      </trkpt>
      <trkpt lat="45.45857" lon="0.79883">
        <ele>200.848</ele>
        <time>2019-11-01T15:25:50.001Z</time>
      </trkpt>
      <trkpt lat="45.45923" lon="0.79777">
        <ele>206.395</ele>
        <time>2019-11-01T15:26:23.001Z</time>
      </trkpt>
      <trkpt lat="45.45991" lon="0.79672">
        <ele>202.227</ele>
        <time>2019-11-01T15:26:53.001Z</time>
      </trkpt>
      <trkpt lat="45.46065" lon="0.79563">
        <ele>199.721</ele>
        <time>2019-11-01T15:27:26.001Z</time>
      </trkpt>
      <trkpt lat="45.46124" lon="0.79469">
        <ele>197.333</ele>
        <time>2019-11-01T15:27:56.001Z</time>
      </trkpt>
      <trkpt lat="45.46201" lon="0.79346">
        <ele>200.133</ele>
        <time>2019-11-01T15:28:29.001Z</time>
      </trkpt>
      <trkpt lat="45.46279" lon="0.79222">
        <ele>200.919</ele>
        <time>2019-11-01T15:28:59.001Z</time>
      </trkpt>
      <trkpt lat="45.4635" lon="0.79114">
        <ele>198.4</ele>
        <time>2019-11-01T15:29:29.001Z</time>
      </trkpt>
      <trkpt lat="45.46469" lon="0.78961">
        <ele>201.311</ele>
        <time>2019-11-01T15:30:02Z</time>
      </trkpt>
      <trkpt lat="45.46592" lon="0.78873">
        <ele>200.879</ele>
        <time>2019-11-01T15:30:32.001Z</time>
      </trkpt>
      <trkpt lat="45.46722" lon="0.78791">
        <ele>203.233</ele>
        <time>2019-11-01T15:31:05.001Z</time>
      </trkpt>
      <trkpt lat="45.46799" lon="0.78739">
        <ele>206.091</ele>
        <time>2019-11-01T15:33:59.001Z</time>
      </trkpt>
      <trkpt lat="45.46888" lon="0.7868">
        <ele>209.465</ele>
        <time>2019-11-01T15:34:32.001Z</time>
      </trkpt>
      <trkpt lat="45.47001" lon="0.78604">
        <ele>205.473</ele>
        <time>2019-11-01T15:35:02Z</time>
      </trkpt>
      <trkpt lat="45.47084" lon="0.78553">
        <ele>201.987</ele>
        <time>2019-11-01T15:35:41.001Z</time>
      </trkpt>
      <trkpt lat="45.47144" lon="0.78518">
        <ele>200.061</ele>
        <time>2019-11-01T15:36:14.001Z</time>
      </trkpt>
      <trkpt lat="45.47256" lon="0.78445">
        <ele>204.146</ele>
        <time>2019-11-01T15:36:47.001Z</time>
      </trkpt>
      <trkpt lat="45.47356" lon="0.78377">
        <ele>209.034</ele>
        <time>2019-11-01T15:37:17.001Z</time>
      </trkpt>
      <trkpt lat="45.47425" lon="0.78331">
        <ele>202.61</ele>
        <time>2019-11-01T15:37:47.001Z</time>
      </trkpt>
      <trkpt lat="45.47475" lon="0.78289">
        <ele>201.596</ele>
        <time>2019-11-01T15:40:05.001Z</time>
      </trkpt>
      <trkpt lat="45.47542" lon="0.78214">
        <ele>210.386</ele>
        <time>2019-11-01T15:40:35.001Z</time>
      </trkpt>
      <trkpt lat="45.47616" lon="0.78138">
        <ele>210.66</ele>
        <time>2019-11-01T15:41:08.001Z</time>
      </trkpt>
      <trkpt lat="45.4768" lon="0.78076">
        <ele>211.319</ele>
        <time>2019-11-01T15:41:38.001Z</time>
      </trkpt>
      <trkpt lat="45.47764" lon="0.78016">
        <ele>215.753</ele>
        <time>2019-11-01T15:42:11.001Z</time>
      </trkpt>
      <trkpt lat="45.47856" lon="0.77985">
        <ele>219.492</ele>
        <time>2019-11-01T15:42:41.001Z</time>
      </trkpt>
      <trkpt lat="45.47984" lon="0.77952">
        <ele>220.089</ele>
        <time>2019-11-01T15:43:14.001Z</time>
      </trkpt>
      <trkpt lat="45.48138" lon="0.77911">
        <ele>223.59</ele>
        <time>2019-11-01T15:43:44.001Z</time>
      </trkpt>
      <trkpt lat="45.48334" lon="0.77866">
        <ele>209.02</ele>
        <time>2019-11-01T15:44:17.001Z</time>
      </trkpt>
      <trkpt lat="45.48508" lon="0.77828">
        <ele>198.69</ele>
        <time>2019-11-01T15:44:47.001Z</time>
      </trkpt>
      <trkpt lat="45.48676" lon="0.77739">
        <ele>196.749</ele>
        <time>2019-11-01T15:45:17.001Z</time>
      </trkpt>
      <trkpt lat="45.48771" lon="0.77631">
        <ele>188.277</ele>
        <time>2019-11-01T15:45:50.001Z</time>
      </trkpt>
      <trkpt lat="45.48856" lon="0.77439">
        <ele>187.459</ele>
        <time>2019-11-01T15:46:20.001Z</time>
      </trkpt>
      <trkpt lat="45.48914" lon="0.77192">
        <ele>189.667</ele>
        <time>2019-11-01T15:46:53.001Z</time>
      </trkpt>
      <trkpt lat="45.4893" lon="0.7695">
        <ele>192.19</ele>
        <time>2019-11-01T15:47:23.001Z</time>
      </trkpt>
      <trkpt lat="45.48934" lon="0.76658">
        <ele>192.411</ele>
        <time>2019-11-01T15:47:56.001Z</time>
      </trkpt>
      <trkpt lat="45.48945" lon="0.76413">
        <ele>180.192</ele>
        <time>2019-11-01T15:48:26.001Z</time>
      </trkpt>
      <trkpt lat="45.48983" lon="0.76141">
        <ele>184.798</ele>
        <time>2019-11-01T15:48:59.001Z</time>
      </trkpt>
      <trkpt lat="45.49012" lon="0.75906">
        <ele>182.147</ele>
        <time>2019-11-01T15:49:29.001Z</time>
      </trkpt>
      <trkpt lat="45.49053" lon="0.75621">
        <ele>176.656</ele>
        <time>2019-11-01T15:50:02Z</time>
      </trkpt>
      <trkpt lat="45.4904" lon="0.75393">
        <ele>170.503</ele>
        <time>2019-11-01T15:50:32.001Z</time>
      </trkpt>
      <trkpt lat="45.49029" lon="0.75115">
        <ele>164.369</ele>
        <time>2019-11-01T15:51:02Z</time>
      </trkpt>
      <trkpt lat="45.49062" lon="0.74886">
        <ele>158.07</ele>
        <time>2019-11-01T15:51:35.001Z</time>
      </trkpt>
      <trkpt lat="45.4915" lon="0.74667">
        <ele>153.313</ele>
        <time>2019-11-01T15:52:05.001Z</time>
      </trkpt>
      <trkpt lat="45.492" lon="0.74472">
        <ele>154.127</ele>
        <time>2019-11-01T15:52:38.001Z</time>
      </trkpt>
      <trkpt lat="45.49201" lon="0.74273">
        <ele>158.011</ele>
        <time>2019-11-01T15:53:08.001Z</time>
      </trkpt>
      <trkpt lat="45.49145" lon="0.74161">
        <ele>152.439</ele>
        <time>2019-11-01T15:53:41.001Z</time>
      </trkpt>
      <trkpt lat="45.49136" lon="0.74137">
        <ele>161.434</ele>
        <time>2019-11-01T15:56:44.001Z</time>
      </trkpt>
      <trkpt lat="45.49214" lon="0.74262">
        <ele>159.278</ele>
        <time>2019-11-01T15:57:17.001Z</time>
      </trkpt>
      <trkpt lat="45.49301" lon="0.7438">
        <ele>153.711</ele>
        <time>2019-11-01T15:57:47.001Z</time>
      </trkpt>
      <trkpt lat="45.49305" lon="0.74238">
        <ele>154.043</ele>
        <time>2019-11-01T15:58:20.001Z</time>
      </trkpt>
      <trkpt lat="45.49286" lon="0.74136">
        <ele>155.198</ele>
        <time>2019-11-01T15:58:50.001Z</time>
      </trkpt>
      <trkpt lat="45.49323" lon="0.74057">
        <ele>163.787</ele>
        <time>2019-11-01T15:59:20.001Z</time>
      </trkpt>
      <trkpt lat="45.49356" lon="0.73959">
        <ele>162.464</ele>
        <time>2019-11-01T15:59:53.001Z</time>
      </trkpt>
      <trkpt lat="45.49342" lon="0.73851">
        <ele>168.999</ele>
        <time>2019-11-01T16:00:23.001Z</time>
      </trkpt>
      <trkpt lat="45.49349" lon="0.73734">
        <ele>171.361</ele>
        <time>2019-11-01T16:00:56.001Z</time>
      </trkpt>
      <trkpt lat="45.4938" lon="0.73564">
        <ele>167.22</ele>
        <time>2019-11-01T16:01:26.001Z</time>
      </trkpt>
      <trkpt lat="45.49376" lon="0.73386">
        <ele>169.302</ele>
        <time>2019-11-01T16:01:59.001Z</time>
      </trkpt>
      <trkpt lat="45.49389" lon="0.73288">
        <ele>175.678</ele>
        <time>2019-11-01T16:02:29.001Z</time>
      </trkpt>
      <trkpt lat="45.49385" lon="0.73171">
        <ele>179.827</ele>
        <time>2019-11-01T16:03:02Z</time>
      </trkpt>
      <trkpt lat="45.49434" lon="0.73102">
        <ele>181.505</ele>
        <time>2019-11-01T16:03:32.001Z</time>
      </trkpt>
      <trkpt lat="45.49587" lon="0.72905">
        <ele>165.458</ele>
        <time>2019-11-01T16:04:05.001Z</time>
      </trkpt>
      <trkpt lat="45.49531" lon="0.72768">
        <ele>175.697</ele>
        <time>2019-11-01T16:04:35.001Z</time>
      </trkpt>
      <trkpt lat="45.49434" lon="0.72639">
        <ele>171.514</ele>
        <time>2019-11-01T16:05:05.001Z</time>
      </trkpt>
      <trkpt lat="45.49435" lon="0.72419">
        <ele>166.066</ele>
        <time>2019-11-01T16:05:38.001Z</time>
      </trkpt>
      <trkpt lat="45.49446" lon="0.72205">
        <ele>167.522</ele>
        <time>2019-11-01T16:06:08.001Z</time>
      </trkpt>
      <trkpt lat="45.49442" lon="0.71796">
        <ele>152.928</ele>
        <time>2019-11-01T16:06:41.001Z</time>
      </trkpt>
      <trkpt lat="45.49387" lon="0.71567">
        <ele>148.415</ele>
        <time>2019-11-01T16:07:11.001Z</time>
      </trkpt>
      <trkpt lat="45.49383" lon="0.71368">
        <ele>149.232</ele>
        <time>2019-11-01T16:07:44.001Z</time>
      </trkpt>
      <trkpt lat="45.49395" lon="0.71249">
        <ele>151.487</ele>
        <time>2019-11-01T16:08:14.001Z</time>
      </trkpt>
      <trkpt lat="45.49401" lon="0.71155">
        <ele>162.795</ele>
        <time>2019-11-01T16:08:50.001Z</time>
      </trkpt>
      <trkpt lat="45.49413" lon="0.7108">
        <ele>171.755</ele>
        <time>2019-11-01T16:09:20.001Z</time>
      </trkpt>
      <trkpt lat="45.49439" lon="0.7099">
        <ele>172.715</ele>
        <time>2019-11-01T16:09:53.001Z</time>
      </trkpt>
      <trkpt lat="45.49451" lon="0.70899">
        <ele>178.995</ele>
        <time>2019-11-01T16:10:23.001Z</time>
      </trkpt>
      <trkpt lat="45.49466" lon="0.70783">
        <ele>180.61</ele>
        <time>2019-11-01T16:10:53.001Z</time>
      </trkpt>
      <trkpt lat="45.49475" lon="0.70652">
        <ele>182.529</ele>
        <time>2019-11-01T16:11:26.001Z</time>
      </trkpt>
      <trkpt lat="45.49479" lon="0.70552">
        <ele>186.435</ele>
        <time>2019-11-01T16:11:56.001Z</time>
      </trkpt>
      <trkpt lat="45.49478" lon="0.70455">
        <ele>199.038</ele>
        <time>2019-11-01T16:12:29.001Z</time>
      </trkpt>
      <trkpt lat="45.49497" lon="0.70362">
        <ele>201.229</ele>
        <time>2019-11-01T16:12:59.001Z</time>
      </trkpt>
      <trkpt lat="45.49536" lon="0.70287">
        <ele>203.563</ele>
        <time>2019-11-01T16:13:32.001Z</time>
      </trkpt>
      <trkpt lat="45.49546" lon="0.70211">
        <ele>213.621</ele>
        <time>2019-11-01T16:14:02Z</time>
      </trkpt>
      <trkpt lat="45.49555" lon="0.70055">
        <ele>202.4</ele>
        <time>2019-11-01T16:14:35.001Z</time>
      </trkpt>
      <trkpt lat="45.49555" lon="0.69883">
        <ele>190.317</ele>
        <time>2019-11-01T16:15:05.001Z</time>
      </trkpt>
      <trkpt lat="45.49656" lon="0.69646">
        <ele>185.704</ele>
        <time>2019-11-01T16:15:38.001Z</time>
      </trkpt>
      <trkpt lat="45.49755" lon="0.69386">
        <ele>179.712</ele>
        <time>2019-11-01T16:16:08.001Z</time>
      </trkpt>
      <trkpt lat="45.49798" lon="0.69215">
        <ele>179.63</ele>
        <time>2019-11-01T16:16:38.001Z</time>
      </trkpt>
      <trkpt lat="45.49861" lon="0.69221">
        <ele>191.958</ele>
        <time>2019-11-01T16:17:20.001Z</time>
      </trkpt>
      <trkpt lat="45.49912" lon="0.69201">
        <ele>203.365</ele>
        <time>2019-11-01T16:17:56.001Z</time>
      </trkpt>
      <trkpt lat="45.49899" lon="0.69092">
        <ele>212.792</ele>
        <time>2019-11-01T16:18:29.001Z</time>
      </trkpt>
      <trkpt lat="45.49849" lon="0.68996">
        <ele>220.556</ele>
        <time>2019-11-01T16:18:59.001Z</time>
      </trkpt>
      <trkpt lat="45.49772" lon="0.68846">
        <ele>228.875</ele>
        <time>2019-11-01T16:19:32.001Z</time>
      </trkpt>
      <trkpt lat="45.49703" lon="0.68722">
        <ele>205.126</ele>
        <time>2019-11-01T16:20:02Z</time>
      </trkpt>
      <trkpt lat="45.49664" lon="0.68641">
        <ele>211.508</ele>
        <time>2019-11-01T16:20:35.001Z</time>
      </trkpt>
      <trkpt lat="45.49618" lon="0.68593">
        <ele>212.322</ele>
        <time>2019-11-01T16:21:05.001Z</time>
      </trkpt>
      <trkpt lat="45.49562" lon="0.68541">
        <ele>214.962</ele>
        <time>2019-11-01T16:21:38.001Z</time>
      </trkpt>
      <trkpt lat="45.49521" lon="0.68489">
        <ele>220.97</ele>
        <time>2019-11-01T16:22:08.001Z</time>
      </trkpt>
      <trkpt lat="45.49504" lon="0.68414">
        <ele>226.443</ele>
        <time>2019-11-01T16:22:41.001Z</time>
      </trkpt>
      <trkpt lat="45.49486" lon="0.68325">
        <ele>229.849</ele>
        <time>2019-11-01T16:23:14.002Z</time>
      </trkpt>
      <trkpt lat="45.49453" lon="0.6826">
        <ele>232.569</ele>
        <time>2019-11-01T16:23:44.001Z</time>
      </trkpt>
      <trkpt lat="45.49404" lon="0.6818">
        <ele>236.658</ele>
        <time>2019-11-01T16:24:17.001Z</time>
      </trkpt>
      <trkpt lat="45.49366" lon="0.68034">
        <ele>245.66</ele>
        <time>2019-11-01T16:24:47.001Z</time>
      </trkpt>
      <trkpt lat="45.49402" lon="0.67753">
        <ele>227.78</ele>
        <time>2019-11-01T16:25:20.001Z</time>
      </trkpt>
      <trkpt lat="45.494" lon="0.67598">
        <ele>222.22</ele>
        <time>2019-11-01T16:25:50.001Z</time>
      </trkpt>
      <trkpt lat="45.49419" lon="0.67435">
        <ele>223.61</ele>
        <time>2019-11-01T16:26:23.001Z</time>
      </trkpt>
      <trkpt lat="45.49455" lon="0.67251">
        <ele>236.49</ele>
        <time>2019-11-01T16:26:53.001Z</time>
      </trkpt>
      <trkpt lat="45.49544" lon="0.67103">
        <ele>241.149</ele>
        <time>2019-11-01T16:27:26.001Z</time>
      </trkpt>
      <trkpt lat="45.49664" lon="0.66958">
        <ele>231.722</ele>
        <time>2019-11-01T16:27:56.001Z</time>
      </trkpt>
      <trkpt lat="45.49738" lon="0.66854">
        <ele>223.476</ele>
        <time>2019-11-01T16:28:26.001Z</time>
      </trkpt>
      <trkpt lat="45.49781" lon="0.66735">
        <ele>237.505</ele>
        <time>2019-11-01T16:28:59.001Z</time>
      </trkpt>
      <trkpt lat="45.49856" lon="0.66625">
        <ele>252.13</ele>
        <time>2019-11-01T16:29:29.001Z</time>
      </trkpt>
      <trkpt lat="45.49957" lon="0.66527">
        <ele>250.194</ele>
        <time>2019-11-01T16:30:02Z</time>
      </trkpt>
      <trkpt lat="45.50041" lon="0.6645">
        <ele>240.333</ele>
        <time>2019-11-01T16:30:32.001Z</time>
      </trkpt>
      <trkpt lat="45.50131" lon="0.66508">
        <ele>242.873</ele>
        <time>2019-11-01T16:31:05.001Z</time>
      </trkpt>
      <trkpt lat="45.50202" lon="0.666">
        <ele>244.425</ele>
        <time>2019-11-01T16:31:35.001Z</time>
      </trkpt>
      <trkpt lat="45.50274" lon="0.66687">
        <ele>252.571</ele>
        <time>2019-11-01T16:32:08.001Z</time>
      </trkpt>
      <trkpt lat="45.50342" lon="0.66747">
        <ele>249.238</ele>
        <time>2019-11-01T16:32:38.001Z</time>
      </trkpt>
      <trkpt lat="45.50433" lon="0.66722">
        <ele>255.372</ele>
        <time>2019-11-01T16:33:11.001Z</time>
      </trkpt>
      <trkpt lat="45.50571" lon="0.6665">
        <ele>255.764</ele>
        <time>2019-11-01T16:33:41.001Z</time>
      </trkpt>
      <trkpt lat="45.50744" lon="0.66814">
        <ele>244.047</ele>
        <time>2019-11-01T16:34:11.001Z</time>
      </trkpt>
      <trkpt lat="45.50944" lon="0.66954">
        <ele>246.183</ele>
        <time>2019-11-01T16:34:44.001Z</time>
      </trkpt>
      <trkpt lat="45.51154" lon="0.67031">
        <ele>242.526</ele>
        <time>2019-11-01T16:35:14.001Z</time>
      </trkpt>
      <trkpt lat="45.51449" lon="0.67013">
        <ele>221.938</ele>
        <time>2019-11-01T16:35:47.001Z</time>
      </trkpt>
      <trkpt lat="45.51737" lon="0.66792">
        <ele>205.772</ele>
        <time>2019-11-01T16:36:17.001Z</time>
      </trkpt>
      <trkpt lat="45.51998" lon="0.66537">
        <ele>185.887</ele>
        <time>2019-11-01T16:36:50.001Z</time>
      </trkpt>
      <trkpt lat="45.52281" lon="0.6644">
        <ele>175.697</ele>
        <time>2019-11-01T16:37:20.001Z</time>
      </trkpt>
      <trkpt lat="45.52467" lon="0.6618">
        <ele>160.739</ele>
        <time>2019-11-01T16:37:53.001Z</time>
      </trkpt>
      <trkpt lat="45.5248" lon="0.66004">
        <ele>166.341</ele>
        <time>2019-11-01T16:38:23.001Z</time>
      </trkpt>
      <trkpt lat="45.52536" lon="0.6592">
        <ele>179.662</ele>
        <time>2019-11-01T16:38:56.001Z</time>
      </trkpt>
      <trkpt lat="45.52599" lon="0.65939">
        <ele>192.155</ele>
        <time>2019-11-01T16:39:26.001Z</time>
      </trkpt>
      <trkpt lat="45.52642" lon="0.66002">
        <ele>191.907</ele>
        <time>2019-11-01T16:40:02Z</time>
      </trkpt>
      <trkpt lat="45.52699" lon="0.66017">
        <ele>200.987</ele>
        <time>2019-11-01T16:40:38.001Z</time>
      </trkpt>
      <trkpt lat="45.52761" lon="0.66026">
        <ele>212.389</ele>
        <time>2019-11-01T16:41:11.001Z</time>
      </trkpt>
      <trkpt lat="45.52823" lon="0.66047">
        <ele>215.373</ele>
        <time>2019-11-01T16:41:44.001Z</time>
      </trkpt>
      <trkpt lat="45.5279" lon="0.66062">
        <ele>210.428</ele>
        <time>2019-11-01T16:42:17.001Z</time>
      </trkpt>
      <trkpt lat="45.52762" lon="0.66089">
        <ele>207.046</ele>
        <time>2019-11-01T16:42:53.001Z</time>
      </trkpt>
      <trkpt lat="45.52818" lon="0.6613">
        <ele>210.831</ele>
        <time>2019-11-01T16:43:23.001Z</time>
      </trkpt>
      <trkpt lat="45.52843" lon="0.66161">
        <ele>217.974</ele>
        <time>2019-11-01T16:45:38.001Z</time>
      </trkpt>
      <trkpt lat="45.52879" lon="0.66207">
        <ele>231.016</ele>
        <time>2019-11-01T16:46:26.001Z</time>
      </trkpt>
      <trkpt lat="45.52912" lon="0.66221">
        <ele>237.536</ele>
        <time>2019-11-01T16:49:17.001Z</time>
      </trkpt>
      <trkpt lat="45.52937" lon="0.66223">
        <ele>240.544</ele>
        <time>2019-11-01T16:51:20.001Z</time>
      </trkpt>
      <trkpt lat="45.52944" lon="0.66227">
        <ele>224.355</ele>
        <time>2019-11-01T16:52:38.001Z</time>
      </trkpt>
      <trkpt lat="45.5298" lon="0.66238">
        <ele>230.605</ele>
        <time>2019-11-01T16:53:32.001Z</time>
      </trkpt>
      <trkpt lat="45.52984" lon="0.66279">
        <ele>294.421</ele>
        <time>2019-11-01T17:00:28Z</time>
      </trkpt>
      <trkpt lat="45.5297" lon="0.66247">
        <ele>235.316</ele>
        <time>2019-11-01T17:01:13Z</time>
      </trkpt>
    </trkseg>
  </trk>
</gpx>